<?xml version="1.0" encoding="UTF-8" standalone="no" ?>
<gpx xmlns="http://www.topografix.com/GPX/1/1" creator="CompeGPS" version="1.1" xmlns:xsi="http://www.w3.org/2001/XMLSchema-instance" xsi:schemaLocation="http://www.topografix.com/GPX/1/1 http://www.topografix.com/GPX/1/1/gpx.xsd http://www.garmin.com/xmlschemas/GpxExtensions/v3 http://www.garmin.com/xmlschemas/GpxExtensionsv3.xsd http://www.garmin.com/xmlschemas/TrackPointExtension/v1 http://www.garmin.com/xmlschemas/TrackPointExtensionv1.xsd" xmlns:gpxtpx="http://www.garmin.com/xmlschemas/TrackPointExtension/v1">
  <metadata>
    <link href="http://www.compegps.com">
      <text>CompeGPS TEAM, SL</text>
    </link>
    <time>2020-03-22T13:51:17Z</time>
    <bounds maxlat="43.240704" maxlon="0.916898" minlat="43.207159" minlon="0.876360"/>
  </metadata>
  <trk>
    <name>aurignac-moutoulieu</name>
    <userMyTwoNav></userMyTwoNav>
    <serialNumber></serialNumber>
      <wpt lat="43.210147" lon="0.894745">
    <ele>453.4</ele>
    <time>2020-03-22T13:52:19Z</time>
    <name>Cap Martin</name>
    <desc></desc>
    <sym>Waypoint</sym>
  </wpt>
<trkseg>
      <trkpt lat="43.216270" lon="0.883020">
        <ele>385.9</ele>
        <time>2020-02-20T15:46:05Z</time>
        <cmt>Aurignac</cmt>
        <sym>Waypoint</sym>
      </trkpt>
      <trkpt lat="43.216340" lon="0.883007">
        <ele>385.3</ele>
        <time>2020-02-20T15:46:12Z</time>
      </trkpt>
      <trkpt lat="43.216432" lon="0.882959">
        <ele>384.8</ele>
        <time>2020-02-20T15:46:18Z</time>
      </trkpt>
      <trkpt lat="43.216521" lon="0.882879">
        <ele>384.6</ele>
        <time>2020-02-20T15:46:21Z</time>
      </trkpt>
      <trkpt lat="43.216647" lon="0.882764">
        <ele>384.3</ele>
        <time>2020-02-20T15:46:25Z</time>
      </trkpt>
      <trkpt lat="43.216736" lon="0.882714">
        <ele>383.1</ele>
        <time>2020-02-20T15:46:29Z</time>
      </trkpt>
      <trkpt lat="43.216849" lon="0.882549">
        <ele>378.0</ele>
        <time>2020-02-20T15:46:33Z</time>
      </trkpt>
      <trkpt lat="43.216907" lon="0.882428">
        <ele>377.9</ele>
        <time>2020-02-20T15:46:37Z</time>
      </trkpt>
      <trkpt lat="43.216967" lon="0.882293">
        <ele>377.9</ele>
        <time>2020-02-20T15:46:41Z</time>
      </trkpt>
      <trkpt lat="43.217022" lon="0.882167">
        <ele>378.8</ele>
        <time>2020-02-20T15:46:44Z</time>
      </trkpt>
      <trkpt lat="43.217089" lon="0.882024">
        <ele>379.7</ele>
        <time>2020-02-20T15:46:48Z</time>
      </trkpt>
      <trkpt lat="43.217159" lon="0.881898">
        <ele>379.7</ele>
        <time>2020-02-20T15:46:52Z</time>
      </trkpt>
      <trkpt lat="43.217244" lon="0.881792">
        <ele>381.3</ele>
        <time>2020-02-20T15:46:56Z</time>
      </trkpt>
      <trkpt lat="43.217329" lon="0.881687">
        <ele>381.3</ele>
        <time>2020-02-20T15:47:00Z</time>
      </trkpt>
      <trkpt lat="43.217427" lon="0.881586">
        <ele>382.1</ele>
        <time>2020-02-20T15:47:04Z</time>
      </trkpt>
      <trkpt lat="43.217514" lon="0.881480">
        <ele>382.9</ele>
        <time>2020-02-20T15:47:08Z</time>
      </trkpt>
      <trkpt lat="43.217601" lon="0.881381">
        <ele>384.9</ele>
        <time>2020-02-20T15:47:14Z</time>
      </trkpt>
      <trkpt lat="43.217700" lon="0.881299">
        <ele>385.7</ele>
        <time>2020-02-20T15:47:19Z</time>
      </trkpt>
      <trkpt lat="43.217802" lon="0.881195">
        <ele>386.4</ele>
        <time>2020-02-20T15:47:24Z</time>
      </trkpt>
      <trkpt lat="43.217899" lon="0.881117">
        <ele>387.3</ele>
        <time>2020-02-20T15:47:28Z</time>
      </trkpt>
      <trkpt lat="43.217990" lon="0.881017">
        <ele>388.3</ele>
        <time>2020-02-20T15:47:33Z</time>
      </trkpt>
      <trkpt lat="43.218126" lon="0.880994">
        <ele>389.2</ele>
        <time>2020-02-20T15:47:38Z</time>
      </trkpt>
      <trkpt lat="43.218222" lon="0.880942">
        <ele>390.9</ele>
        <time>2020-02-20T15:47:44Z</time>
      </trkpt>
      <trkpt lat="43.218334" lon="0.880903">
        <ele>391.6</ele>
        <time>2020-02-20T15:47:49Z</time>
      </trkpt>
      <trkpt lat="43.218427" lon="0.880864">
        <ele>392.7</ele>
        <time>2020-02-20T15:47:53Z</time>
      </trkpt>
      <trkpt lat="43.218515" lon="0.880808">
        <ele>394.5</ele>
        <time>2020-02-20T15:47:58Z</time>
      </trkpt>
      <trkpt lat="43.218598" lon="0.880735">
        <ele>396.2</ele>
        <time>2020-02-20T15:48:03Z</time>
      </trkpt>
      <trkpt lat="43.218687" lon="0.880663">
        <ele>397.2</ele>
        <time>2020-02-20T15:48:08Z</time>
      </trkpt>
      <trkpt lat="43.218770" lon="0.880589">
        <ele>398.1</ele>
        <time>2020-02-20T15:48:14Z</time>
      </trkpt>
      <trkpt lat="43.218864" lon="0.880539">
        <ele>399.0</ele>
        <time>2020-02-20T15:48:29Z</time>
      </trkpt>
      <trkpt lat="43.218932" lon="0.880493">
        <ele>399.9</ele>
        <time>2020-02-20T15:49:03Z</time>
      </trkpt>
      <trkpt lat="43.219050" lon="0.880394">
        <ele>401.7</ele>
        <time>2020-02-20T15:49:28Z</time>
      </trkpt>
      <trkpt lat="43.219151" lon="0.880315">
        <ele>402.6</ele>
        <time>2020-02-20T15:49:34Z</time>
      </trkpt>
      <trkpt lat="43.219237" lon="0.880218">
        <ele>403.5</ele>
        <time>2020-02-20T15:49:39Z</time>
      </trkpt>
      <trkpt lat="43.219344" lon="0.880126">
        <ele>403.5</ele>
        <time>2020-02-20T15:49:44Z</time>
      </trkpt>
      <trkpt lat="43.219438" lon="0.880010">
        <ele>403.4</ele>
        <time>2020-02-20T15:49:49Z</time>
      </trkpt>
      <trkpt lat="43.219539" lon="0.879908">
        <ele>403.4</ele>
        <time>2020-02-20T15:49:53Z</time>
      </trkpt>
      <trkpt lat="43.219619" lon="0.879818">
        <ele>403.4</ele>
        <time>2020-02-20T15:49:56Z</time>
      </trkpt>
      <trkpt lat="43.219698" lon="0.879725">
        <ele>403.4</ele>
        <time>2020-02-20T15:49:59Z</time>
      </trkpt>
      <trkpt lat="43.219770" lon="0.879622">
        <ele>403.4</ele>
        <time>2020-02-20T15:50:02Z</time>
      </trkpt>
      <trkpt lat="43.219842" lon="0.879540">
        <ele>403.4</ele>
        <time>2020-02-20T15:50:05Z</time>
      </trkpt>
      <trkpt lat="43.219925" lon="0.879457">
        <ele>403.4</ele>
        <time>2020-02-20T15:50:09Z</time>
      </trkpt>
      <trkpt lat="43.219984" lon="0.879343">
        <ele>403.4</ele>
        <time>2020-02-20T15:50:15Z</time>
      </trkpt>
      <trkpt lat="43.220000" lon="0.879475">
        <ele>403.4</ele>
        <time>2020-02-20T15:50:28Z</time>
      </trkpt>
      <trkpt lat="43.220026" lon="0.879606">
        <ele>404.3</ele>
        <time>2020-02-20T15:50:37Z</time>
      </trkpt>
      <trkpt lat="43.220012" lon="0.879710">
        <ele>405.9</ele>
        <time>2020-02-20T15:50:52Z</time>
      </trkpt>
      <trkpt lat="43.219979" lon="0.879720">
        <ele>405.9</ele>
        <time>2020-02-20T15:51:27Z</time>
      </trkpt>
      <trkpt lat="43.220006" lon="0.879788">
        <ele>405.9</ele>
        <time>2020-02-20T15:51:41Z</time>
      </trkpt>
      <trkpt lat="43.220032" lon="0.879793">
        <ele>407.7</ele>
        <time>2020-02-20T15:52:13Z</time>
      </trkpt>
      <trkpt lat="43.220030" lon="0.879730">
        <ele>407.7</ele>
        <time>2020-02-20T15:52:51Z</time>
      </trkpt>
      <trkpt lat="43.220032" lon="0.879600">
        <ele>405.4</ele>
        <time>2020-02-20T15:53:02Z</time>
      </trkpt>
      <trkpt lat="43.219977" lon="0.879486">
        <ele>403.1</ele>
        <time>2020-02-20T15:53:07Z</time>
      </trkpt>
      <trkpt lat="43.220015" lon="0.879328">
        <ele>401.5</ele>
        <time>2020-02-20T15:53:13Z</time>
      </trkpt>
      <trkpt lat="43.220087" lon="0.879207">
        <ele>401.5</ele>
        <time>2020-02-20T15:53:16Z</time>
      </trkpt>
      <trkpt lat="43.220165" lon="0.879078">
        <ele>399.7</ele>
        <time>2020-02-20T15:53:19Z</time>
      </trkpt>
      <trkpt lat="43.220239" lon="0.878959">
        <ele>398.8</ele>
        <time>2020-02-20T15:53:22Z</time>
      </trkpt>
      <trkpt lat="43.220305" lon="0.878846">
        <ele>397.8</ele>
        <time>2020-02-20T15:53:25Z</time>
      </trkpt>
      <trkpt lat="43.220365" lon="0.878710">
        <ele>395.2</ele>
        <time>2020-02-20T15:53:28Z</time>
      </trkpt>
      <trkpt lat="43.220393" lon="0.878577">
        <ele>393.6</ele>
        <time>2020-02-20T15:53:31Z</time>
      </trkpt>
      <trkpt lat="43.220411" lon="0.878439">
        <ele>391.0</ele>
        <time>2020-02-20T15:53:34Z</time>
      </trkpt>
      <trkpt lat="43.220466" lon="0.878312">
        <ele>388.6</ele>
        <time>2020-02-20T15:53:39Z</time>
      </trkpt>
      <trkpt lat="43.220530" lon="0.878185">
        <ele>386.9</ele>
        <time>2020-02-20T15:53:44Z</time>
      </trkpt>
      <trkpt lat="43.220626" lon="0.878028">
        <ele>384.5</ele>
        <time>2020-02-20T15:53:47Z</time>
      </trkpt>
      <trkpt lat="43.220715" lon="0.877913">
        <ele>382.5</ele>
        <time>2020-02-20T15:53:49Z</time>
      </trkpt>
      <trkpt lat="43.220805" lon="0.877789">
        <ele>380.3</ele>
        <time>2020-02-20T15:53:51Z</time>
      </trkpt>
      <trkpt lat="43.220878" lon="0.877676">
        <ele>378.3</ele>
        <time>2020-02-20T15:53:53Z</time>
      </trkpt>
      <trkpt lat="43.220950" lon="0.877554">
        <ele>376.5</ele>
        <time>2020-02-20T15:53:56Z</time>
      </trkpt>
      <trkpt lat="43.221026" lon="0.877465">
        <ele>374.4</ele>
        <time>2020-02-20T15:54:02Z</time>
      </trkpt>
      <trkpt lat="43.221128" lon="0.877362">
        <ele>373.5</ele>
        <time>2020-02-20T15:54:06Z</time>
      </trkpt>
      <trkpt lat="43.221210" lon="0.877289">
        <ele>372.5</ele>
        <time>2020-02-20T15:54:08Z</time>
      </trkpt>
      <trkpt lat="43.221301" lon="0.877213">
        <ele>371.3</ele>
        <time>2020-02-20T15:54:10Z</time>
      </trkpt>
      <trkpt lat="43.221384" lon="0.877120">
        <ele>370.3</ele>
        <time>2020-02-20T15:54:13Z</time>
      </trkpt>
      <trkpt lat="43.221454" lon="0.877029">
        <ele>368.6</ele>
        <time>2020-02-20T15:54:17Z</time>
      </trkpt>
      <trkpt lat="43.221530" lon="0.876907">
        <ele>366.7</ele>
        <time>2020-02-20T15:54:21Z</time>
      </trkpt>
      <trkpt lat="43.221554" lon="0.876746">
        <ele>365.4</ele>
        <time>2020-02-20T15:54:24Z</time>
      </trkpt>
      <trkpt lat="43.221567" lon="0.876593">
        <ele>361.7</ele>
        <time>2020-02-20T15:54:29Z</time>
      </trkpt>
      <trkpt lat="43.221608" lon="0.876446">
        <ele>361.7</ele>
        <time>2020-02-20T15:54:53Z</time>
      </trkpt>
      <trkpt lat="43.221775" lon="0.876360">
        <ele>360.2</ele>
        <time>2020-02-20T15:54:57Z</time>
      </trkpt>
      <trkpt lat="43.222186" lon="0.876544">
        <ele>354.5</ele>
        <time>2020-02-20T15:54:59Z</time>
      </trkpt>
      <trkpt lat="43.222528" lon="0.876773">
        <ele>349.6</ele>
        <time>2020-02-20T15:55:01Z</time>
      </trkpt>
      <trkpt lat="43.222796" lon="0.877013">
        <ele>348.3</ele>
        <time>2020-02-20T16:16:16Z</time>
      </trkpt>
      <trkpt lat="43.223089" lon="0.877375">
        <ele>347.9</ele>
        <time>2020-02-20T16:16:22Z</time>
      </trkpt>
      <trkpt lat="43.223257" lon="0.877617">
        <ele>348.4</ele>
        <time>2020-02-20T16:16:29Z</time>
      </trkpt>
      <trkpt lat="43.223501" lon="0.877980">
        <ele>350.0</ele>
        <time>2020-02-20T16:16:33Z</time>
      </trkpt>
      <trkpt lat="43.223670" lon="0.878284">
        <ele>351.2</ele>
        <time>2020-02-20T16:16:37Z</time>
      </trkpt>
      <trkpt lat="43.223868" lon="0.878563">
        <ele>352.8</ele>
        <time>2020-02-20T16:16:40Z</time>
      </trkpt>
      <trkpt lat="43.224052" lon="0.878884">
        <ele>354.6</ele>
        <time>2020-02-20T16:16:44Z</time>
      </trkpt>
      <trkpt lat="43.224191" lon="0.879128">
        <ele>355.9</ele>
        <time>2020-02-20T16:16:51Z</time>
      </trkpt>
      <trkpt lat="43.224296" lon="0.879232">
        <ele>337.5</ele>
        <time>2020-02-20T16:16:55Z</time>
      </trkpt>
      <trkpt lat="43.224367" lon="0.879353">
        <ele>337.5</ele>
        <time>2020-02-20T16:16:59Z</time>
      </trkpt>
      <trkpt lat="43.224424" lon="0.879467">
        <ele>337.5</ele>
        <time>2020-02-20T16:17:03Z</time>
      </trkpt>
      <trkpt lat="43.224506" lon="0.879582">
        <ele>337.5</ele>
        <time>2020-02-20T16:17:08Z</time>
      </trkpt>
      <trkpt lat="43.224577" lon="0.879659">
        <ele>337.4</ele>
        <time>2020-02-20T16:17:30Z</time>
      </trkpt>
      <trkpt lat="43.224514" lon="0.879588">
        <ele>337.4</ele>
        <time>2020-02-20T16:17:37Z</time>
        <cmt>Carrefour des 4 chemins </cmt>
        <sym>Waypoint</sym>
      </trkpt>
      <trkpt lat="43.224581" lon="0.879653">
        <ele>337.4</ele>
        <time>2020-02-20T16:18:14Z</time>
      </trkpt>
      <trkpt lat="43.224674" lon="0.879704">
        <ele>337.4</ele>
        <time>2020-02-20T16:18:18Z</time>
      </trkpt>
      <trkpt lat="43.224766" lon="0.879754">
        <ele>337.4</ele>
        <time>2020-02-20T16:18:21Z</time>
      </trkpt>
      <trkpt lat="43.224865" lon="0.879819">
        <ele>337.4</ele>
        <time>2020-02-20T16:18:24Z</time>
      </trkpt>
      <trkpt lat="43.224972" lon="0.879908">
        <ele>339.8</ele>
        <time>2020-02-20T16:18:28Z</time>
      </trkpt>
      <trkpt lat="43.225061" lon="0.879963">
        <ele>339.8</ele>
        <time>2020-02-20T16:18:31Z</time>
      </trkpt>
      <trkpt lat="43.225167" lon="0.880054">
        <ele>341.5</ele>
        <time>2020-02-20T16:18:35Z</time>
      </trkpt>
      <trkpt lat="43.225252" lon="0.880132">
        <ele>342.4</ele>
        <time>2020-02-20T16:18:39Z</time>
      </trkpt>
      <trkpt lat="43.225330" lon="0.880208">
        <ele>342.4</ele>
        <time>2020-02-20T16:18:43Z</time>
      </trkpt>
      <trkpt lat="43.225423" lon="0.880301">
        <ele>344.3</ele>
        <time>2020-02-20T16:18:47Z</time>
      </trkpt>
      <trkpt lat="43.225506" lon="0.880375">
        <ele>345.1</ele>
        <time>2020-02-20T16:18:51Z</time>
      </trkpt>
      <trkpt lat="43.225606" lon="0.880448">
        <ele>346.0</ele>
        <time>2020-02-20T16:18:56Z</time>
      </trkpt>
      <trkpt lat="43.225701" lon="0.880494">
        <ele>346.0</ele>
        <time>2020-02-20T16:19:00Z</time>
      </trkpt>
      <trkpt lat="43.225812" lon="0.880536">
        <ele>346.8</ele>
        <time>2020-02-20T16:19:06Z</time>
      </trkpt>
      <trkpt lat="43.225930" lon="0.880568">
        <ele>347.7</ele>
        <time>2020-02-20T16:19:11Z</time>
      </trkpt>
      <trkpt lat="43.226036" lon="0.880599">
        <ele>349.4</ele>
        <time>2020-02-20T16:19:16Z</time>
      </trkpt>
      <trkpt lat="43.226135" lon="0.880623">
        <ele>349.4</ele>
        <time>2020-02-20T16:19:21Z</time>
      </trkpt>
      <trkpt lat="43.226241" lon="0.880651">
        <ele>350.3</ele>
        <time>2020-02-20T16:19:26Z</time>
      </trkpt>
      <trkpt lat="43.226332" lon="0.880671">
        <ele>352.0</ele>
        <time>2020-02-20T16:19:31Z</time>
      </trkpt>
      <trkpt lat="43.226430" lon="0.880674">
        <ele>352.8</ele>
        <time>2020-02-20T16:19:36Z</time>
      </trkpt>
      <trkpt lat="43.226543" lon="0.880688">
        <ele>353.8</ele>
        <time>2020-02-20T16:19:42Z</time>
      </trkpt>
      <trkpt lat="43.226646" lon="0.880711">
        <ele>356.0</ele>
        <time>2020-02-20T16:19:48Z</time>
      </trkpt>
      <trkpt lat="43.226754" lon="0.880730">
        <ele>357.7</ele>
        <time>2020-02-20T16:19:55Z</time>
      </trkpt>
      <trkpt lat="43.226865" lon="0.880777">
        <ele>359.2</ele>
        <time>2020-02-20T16:20:57Z</time>
      </trkpt>
      <trkpt lat="43.226959" lon="0.880843">
        <ele>360.1</ele>
        <time>2020-02-20T16:21:01Z</time>
      </trkpt>
      <trkpt lat="43.227055" lon="0.880917">
        <ele>361.9</ele>
        <time>2020-02-20T16:21:06Z</time>
      </trkpt>
      <trkpt lat="43.227151" lon="0.880982">
        <ele>362.8</ele>
        <time>2020-02-20T16:21:11Z</time>
      </trkpt>
      <trkpt lat="43.227243" lon="0.881069">
        <ele>365.0</ele>
        <time>2020-02-20T16:21:18Z</time>
      </trkpt>
      <trkpt lat="43.227340" lon="0.881139">
        <ele>366.7</ele>
        <time>2020-02-20T16:21:24Z</time>
      </trkpt>
      <trkpt lat="43.227452" lon="0.881202">
        <ele>367.7</ele>
        <time>2020-02-20T16:21:30Z</time>
      </trkpt>
      <trkpt lat="43.227548" lon="0.881273">
        <ele>368.5</ele>
        <time>2020-02-20T16:21:36Z</time>
      </trkpt>
      <trkpt lat="43.227646" lon="0.881353">
        <ele>370.1</ele>
        <time>2020-02-20T16:21:43Z</time>
      </trkpt>
      <trkpt lat="43.227730" lon="0.881475">
        <ele>371.1</ele>
        <time>2020-02-20T16:21:50Z</time>
      </trkpt>
      <trkpt lat="43.227821" lon="0.881565">
        <ele>372.0</ele>
        <time>2020-02-20T16:21:56Z</time>
      </trkpt>
      <trkpt lat="43.227883" lon="0.881678">
        <ele>372.8</ele>
        <time>2020-02-20T16:22:03Z</time>
      </trkpt>
      <trkpt lat="43.227975" lon="0.881791">
        <ele>373.5</ele>
        <time>2020-02-20T16:22:10Z</time>
      </trkpt>
      <trkpt lat="43.228064" lon="0.881913">
        <ele>374.4</ele>
        <time>2020-02-20T16:22:18Z</time>
      </trkpt>
      <trkpt lat="43.228147" lon="0.882013">
        <ele>375.3</ele>
        <time>2020-02-20T16:22:25Z</time>
      </trkpt>
      <trkpt lat="43.228261" lon="0.882104">
        <ele>376.9</ele>
        <time>2020-02-20T16:22:32Z</time>
      </trkpt>
      <trkpt lat="43.228379" lon="0.882151">
        <ele>377.7</ele>
        <time>2020-02-20T16:22:40Z</time>
      </trkpt>
      <trkpt lat="43.228485" lon="0.882198">
        <ele>378.7</ele>
        <time>2020-02-20T16:22:47Z</time>
      </trkpt>
      <trkpt lat="43.228590" lon="0.882250">
        <ele>378.7</ele>
        <time>2020-02-20T16:22:53Z</time>
      </trkpt>
      <trkpt lat="43.228699" lon="0.882307">
        <ele>379.5</ele>
        <time>2020-02-20T16:22:59Z</time>
      </trkpt>
      <trkpt lat="43.228825" lon="0.882383">
        <ele>380.2</ele>
        <time>2020-02-20T16:23:06Z</time>
      </trkpt>
      <trkpt lat="43.228929" lon="0.882432">
        <ele>380.1</ele>
        <time>2020-02-20T16:23:12Z</time>
      </trkpt>
      <trkpt lat="43.229038" lon="0.882479">
        <ele>381.1</ele>
        <time>2020-02-20T16:23:18Z</time>
      </trkpt>
      <trkpt lat="43.229149" lon="0.882527">
        <ele>381.0</ele>
        <time>2020-02-20T16:23:24Z</time>
      </trkpt>
      <trkpt lat="43.229257" lon="0.882567">
        <ele>381.0</ele>
        <time>2020-02-20T16:23:29Z</time>
      </trkpt>
      <trkpt lat="43.229382" lon="0.882592">
        <ele>381.0</ele>
        <time>2020-02-20T16:23:35Z</time>
      </trkpt>
      <trkpt lat="43.229491" lon="0.882598">
        <ele>380.9</ele>
        <time>2020-02-20T16:23:38Z</time>
      </trkpt>
      <trkpt lat="43.229619" lon="0.882617">
        <ele>380.9</ele>
        <time>2020-02-20T16:23:43Z</time>
      </trkpt>
      <trkpt lat="43.229771" lon="0.882623">
        <ele>380.9</ele>
        <time>2020-02-20T16:23:48Z</time>
      </trkpt>
      <trkpt lat="43.229911" lon="0.882652">
        <ele>380.9</ele>
        <time>2020-02-20T16:23:52Z</time>
      </trkpt>
      <trkpt lat="43.230032" lon="0.882710">
        <ele>380.9</ele>
        <time>2020-02-20T16:23:56Z</time>
      </trkpt>
      <trkpt lat="43.230139" lon="0.882781">
        <ele>380.9</ele>
        <time>2020-02-20T16:24:00Z</time>
      </trkpt>
      <trkpt lat="43.230249" lon="0.882837">
        <ele>380.9</ele>
        <time>2020-02-20T16:24:05Z</time>
      </trkpt>
      <trkpt lat="43.230366" lon="0.882944">
        <ele>380.9</ele>
        <time>2020-02-20T16:24:09Z</time>
      </trkpt>
      <trkpt lat="43.230450" lon="0.883052">
        <ele>378.4</ele>
        <time>2020-02-20T16:24:12Z</time>
      </trkpt>
      <trkpt lat="43.230532" lon="0.883177">
        <ele>377.2</ele>
        <time>2020-02-20T16:24:15Z</time>
      </trkpt>
      <trkpt lat="43.230641" lon="0.883285">
        <ele>375.2</ele>
        <time>2020-02-20T16:24:18Z</time>
      </trkpt>
      <trkpt lat="43.230747" lon="0.883395">
        <ele>375.2</ele>
        <time>2020-02-20T16:24:21Z</time>
      </trkpt>
      <trkpt lat="43.230845" lon="0.883488">
        <ele>374.4</ele>
        <time>2020-02-20T16:24:24Z</time>
      </trkpt>
      <trkpt lat="43.230948" lon="0.883586">
        <ele>374.4</ele>
        <time>2020-02-20T16:24:27Z</time>
      </trkpt>
      <trkpt lat="43.231052" lon="0.883691">
        <ele>374.4</ele>
        <time>2020-02-20T16:24:31Z</time>
      </trkpt>
      <trkpt lat="43.231131" lon="0.883783">
        <ele>374.5</ele>
        <time>2020-02-20T16:24:35Z</time>
      </trkpt>
      <trkpt lat="43.231223" lon="0.883877">
        <ele>374.5</ele>
        <time>2020-02-20T16:24:39Z</time>
      </trkpt>
      <trkpt lat="43.231335" lon="0.883969">
        <ele>374.5</ele>
        <time>2020-02-20T16:24:43Z</time>
      </trkpt>
      <trkpt lat="43.231433" lon="0.884067">
        <ele>374.5</ele>
        <time>2020-02-20T16:24:47Z</time>
      </trkpt>
      <trkpt lat="43.231549" lon="0.884182">
        <ele>376.9</ele>
        <time>2020-02-20T16:24:51Z</time>
      </trkpt>
      <trkpt lat="43.231642" lon="0.884253">
        <ele>376.9</ele>
        <time>2020-02-20T16:24:54Z</time>
      </trkpt>
      <trkpt lat="43.231737" lon="0.884323">
        <ele>376.8</ele>
        <time>2020-02-20T16:24:57Z</time>
      </trkpt>
      <trkpt lat="43.231822" lon="0.884399">
        <ele>376.8</ele>
        <time>2020-02-20T16:25:00Z</time>
      </trkpt>
      <trkpt lat="43.231937" lon="0.884500">
        <ele>373.4</ele>
        <time>2020-02-20T16:25:04Z</time>
      </trkpt>
      <trkpt lat="43.232048" lon="0.884564">
        <ele>372.4</ele>
        <time>2020-02-20T16:25:08Z</time>
      </trkpt>
      <trkpt lat="43.232147" lon="0.884625">
        <ele>370.6</ele>
        <time>2020-02-20T16:25:12Z</time>
      </trkpt>
      <trkpt lat="43.232262" lon="0.884739">
        <ele>367.4</ele>
        <time>2020-02-20T16:25:17Z</time>
      </trkpt>
      <trkpt lat="43.232386" lon="0.884853">
        <ele>364.5</ele>
        <time>2020-02-20T16:25:21Z</time>
      </trkpt>
      <trkpt lat="43.232479" lon="0.884963">
        <ele>362.2</ele>
        <time>2020-02-20T16:25:24Z</time>
      </trkpt>
      <trkpt lat="43.232576" lon="0.885049">
        <ele>361.0</ele>
        <time>2020-02-20T16:25:27Z</time>
      </trkpt>
      <trkpt lat="43.232699" lon="0.885119">
        <ele>359.2</ele>
        <time>2020-02-20T16:25:32Z</time>
      </trkpt>
      <trkpt lat="43.232795" lon="0.885054">
        <ele>357.4</ele>
        <time>2020-02-20T16:25:38Z</time>
      </trkpt>
      <trkpt lat="43.232852" lon="0.884931">
        <ele>355.2</ele>
        <time>2020-02-20T16:25:42Z</time>
      </trkpt>
      <trkpt lat="43.232928" lon="0.884789">
        <ele>353.1</ele>
        <time>2020-02-20T16:25:46Z</time>
      </trkpt>
      <trkpt lat="43.233011" lon="0.884724">
        <ele>352.1</ele>
        <time>2020-02-20T16:25:50Z</time>
      </trkpt>
      <trkpt lat="43.233114" lon="0.884705">
        <ele>350.5</ele>
        <time>2020-02-20T16:25:56Z</time>
      </trkpt>
      <trkpt lat="43.233247" lon="0.884699">
        <ele>348.2</ele>
        <time>2020-02-20T16:25:59Z</time>
      </trkpt>
      <trkpt lat="43.233338" lon="0.884730">
        <ele>348.2</ele>
        <time>2020-02-20T16:26:01Z</time>
      </trkpt>
      <trkpt lat="43.233450" lon="0.884802">
        <ele>347.4</ele>
        <time>2020-02-20T16:26:04Z</time>
      </trkpt>
      <trkpt lat="43.233560" lon="0.884856">
        <ele>347.4</ele>
        <time>2020-02-20T16:26:08Z</time>
      </trkpt>
      <trkpt lat="43.233671" lon="0.884881">
        <ele>347.4</ele>
        <time>2020-02-20T16:26:12Z</time>
      </trkpt>
      <trkpt lat="43.233795" lon="0.884875">
        <ele>347.4</ele>
        <time>2020-02-20T16:26:17Z</time>
      </trkpt>
      <trkpt lat="43.233874" lon="0.884851">
        <ele>347.4</ele>
        <time>2020-02-20T16:26:34Z</time>
      </trkpt>
      <trkpt lat="43.233959" lon="0.884837">
        <ele>347.4</ele>
        <time>2020-02-20T16:27:12Z</time>
      </trkpt>
      <trkpt lat="43.234063" lon="0.884824">
        <ele>347.6</ele>
        <time>2020-02-20T16:28:02Z</time>
      </trkpt>
      <trkpt lat="43.234161" lon="0.884804">
        <ele>347.6</ele>
        <time>2020-02-20T16:28:05Z</time>
      </trkpt>
      <trkpt lat="43.234260" lon="0.884772">
        <ele>346.6</ele>
        <time>2020-02-20T16:28:08Z</time>
      </trkpt>
      <trkpt lat="43.234346" lon="0.884723">
        <ele>345.5</ele>
        <time>2020-02-20T16:28:11Z</time>
      </trkpt>
      <trkpt lat="43.234448" lon="0.884676">
        <ele>343.8</ele>
        <time>2020-02-20T16:28:15Z</time>
      </trkpt>
      <trkpt lat="43.234557" lon="0.884607">
        <ele>342.7</ele>
        <time>2020-02-20T16:28:19Z</time>
      </trkpt>
      <trkpt lat="43.234663" lon="0.884509">
        <ele>340.8</ele>
        <time>2020-02-20T16:28:23Z</time>
      </trkpt>
      <trkpt lat="43.234754" lon="0.884435">
        <ele>338.1</ele>
        <time>2020-02-20T16:28:27Z</time>
      </trkpt>
      <trkpt lat="43.234850" lon="0.884462">
        <ele>335.8</ele>
        <time>2020-02-20T16:28:31Z</time>
      </trkpt>
      <trkpt lat="43.234949" lon="0.884570">
        <ele>332.9</ele>
        <time>2020-02-20T16:28:36Z</time>
      </trkpt>
      <trkpt lat="43.235077" lon="0.884646">
        <ele>330.9</ele>
        <time>2020-02-20T16:28:40Z</time>
      </trkpt>
      <trkpt lat="43.235192" lon="0.884620">
        <ele>329.0</ele>
        <time>2020-02-20T16:28:44Z</time>
      </trkpt>
      <trkpt lat="43.235294" lon="0.884530">
        <ele>327.9</ele>
        <time>2020-02-20T16:28:48Z</time>
      </trkpt>
      <trkpt lat="43.235414" lon="0.884462">
        <ele>325.9</ele>
        <time>2020-02-20T16:28:52Z</time>
      </trkpt>
      <trkpt lat="43.235540" lon="0.884373">
        <ele>324.2</ele>
        <time>2020-02-20T16:29:01Z</time>
      </trkpt>
      <trkpt lat="43.235655" lon="0.884318">
        <ele>323.1</ele>
        <time>2020-02-20T16:29:05Z</time>
        <cmt>Embranchement du GR86</cmt>
        <sym>Waypoint</sym>
      </trkpt>
      <trkpt lat="43.235779" lon="0.884269">
        <ele>323.4</ele>
        <time>2020-02-20T16:29:09Z</time>
      </trkpt>
      <trkpt lat="43.235913" lon="0.884249">
        <ele>322.5</ele>
        <time>2020-02-20T16:29:13Z</time>
      </trkpt>
      <trkpt lat="43.236042" lon="0.884255">
        <ele>321.3</ele>
        <time>2020-02-20T16:29:17Z</time>
      </trkpt>
      <trkpt lat="43.236167" lon="0.884275">
        <ele>319.7</ele>
        <time>2020-02-20T16:29:22Z</time>
      </trkpt>
      <trkpt lat="43.236294" lon="0.884317">
        <ele>317.7</ele>
        <time>2020-02-20T16:29:27Z</time>
      </trkpt>
      <trkpt lat="43.236430" lon="0.884416">
        <ele>315.9</ele>
        <time>2020-02-20T16:29:31Z</time>
      </trkpt>
      <trkpt lat="43.236528" lon="0.884539">
        <ele>315.1</ele>
        <time>2020-02-20T16:29:35Z</time>
      </trkpt>
      <trkpt lat="43.236605" lon="0.884643">
        <ele>313.9</ele>
        <time>2020-02-20T16:29:38Z</time>
      </trkpt>
      <trkpt lat="43.236677" lon="0.884764">
        <ele>312.0</ele>
        <time>2020-02-20T16:29:41Z</time>
      </trkpt>
      <trkpt lat="43.236773" lon="0.884883">
        <ele>312.0</ele>
        <time>2020-02-20T16:29:44Z</time>
      </trkpt>
      <trkpt lat="43.236865" lon="0.885005">
        <ele>311.3</ele>
        <time>2020-02-20T16:29:48Z</time>
      </trkpt>
      <trkpt lat="43.236942" lon="0.885128">
        <ele>311.3</ele>
        <time>2020-02-20T16:29:52Z</time>
      </trkpt>
      <trkpt lat="43.237014" lon="0.885264">
        <ele>311.3</ele>
        <time>2020-02-20T16:29:57Z</time>
      </trkpt>
      <trkpt lat="43.237043" lon="0.885477">
        <ele>313.7</ele>
        <time>2020-02-20T16:30:12Z</time>
      </trkpt>
      <trkpt lat="43.237083" lon="0.885649">
        <ele>314.5</ele>
        <time>2020-02-20T16:30:24Z</time>
      </trkpt>
      <trkpt lat="43.237158" lon="0.885759">
        <ele>315.4</ele>
        <time>2020-02-20T16:30:47Z</time>
      </trkpt>
      <trkpt lat="43.237238" lon="0.885918">
        <ele>315.3</ele>
        <time>2020-02-20T16:30:57Z</time>
      </trkpt>
      <trkpt lat="43.237316" lon="0.886024">
        <ele>315.3</ele>
        <time>2020-02-20T16:31:02Z</time>
      </trkpt>
      <trkpt lat="43.237420" lon="0.886101">
        <ele>311.5</ele>
        <time>2020-02-20T16:31:06Z</time>
      </trkpt>
      <trkpt lat="43.237542" lon="0.886192">
        <ele>308.9</ele>
        <time>2020-02-20T16:31:11Z</time>
      </trkpt>
      <trkpt lat="43.237666" lon="0.886271">
        <ele>306.6</ele>
        <time>2020-02-20T16:31:16Z</time>
      </trkpt>
      <trkpt lat="43.237788" lon="0.886337">
        <ele>303.4</ele>
        <time>2020-02-20T16:31:21Z</time>
      </trkpt>
      <trkpt lat="43.237914" lon="0.886414">
        <ele>300.1</ele>
        <time>2020-02-20T16:31:26Z</time>
      </trkpt>
      <trkpt lat="43.238022" lon="0.886470">
        <ele>297.4</ele>
        <time>2020-02-20T16:31:30Z</time>
      </trkpt>
      <trkpt lat="43.238117" lon="0.886535">
        <ele>295.4</ele>
        <time>2020-02-20T16:31:33Z</time>
      </trkpt>
      <trkpt lat="43.238229" lon="0.886587">
        <ele>293.6</ele>
        <time>2020-02-20T16:31:37Z</time>
      </trkpt>
      <trkpt lat="43.238305" lon="0.886631">
        <ele>291.9</ele>
        <time>2020-02-20T16:32:06Z</time>
      </trkpt>
      <trkpt lat="43.238362" lon="0.886670">
        <ele>291.9</ele>
        <time>2020-02-20T16:32:32Z</time>
      </trkpt>
      <trkpt lat="43.238308" lon="0.886746">
        <ele>292.6</ele>
        <time>2020-02-20T16:35:07Z</time>
      </trkpt>
      <trkpt lat="43.238319" lon="0.886911">
        <ele>295.1</ele>
        <time>2020-02-20T16:35:22Z</time>
      </trkpt>
      <trkpt lat="43.238297" lon="0.887051">
        <ele>295.9</ele>
        <time>2020-02-20T16:35:29Z</time>
      </trkpt>
      <trkpt lat="43.238252" lon="0.887175">
        <ele>296.9</ele>
        <time>2020-02-20T16:35:35Z</time>
      </trkpt>
      <trkpt lat="43.238203" lon="0.887317">
        <ele>298.7</ele>
        <time>2020-02-20T16:35:51Z</time>
      </trkpt>
      <trkpt lat="43.238135" lon="0.887524">
        <ele>300.5</ele>
        <time>2020-02-20T16:36:07Z</time>
      </trkpt>
      <trkpt lat="43.238067" lon="0.887654">
        <ele>302.1</ele>
        <time>2020-02-20T16:36:20Z</time>
      </trkpt>
      <trkpt lat="43.238017" lon="0.887778">
        <ele>305.6</ele>
        <time>2020-02-20T16:36:35Z</time>
      </trkpt>
      <trkpt lat="43.237945" lon="0.887875">
        <ele>307.9</ele>
        <time>2020-02-20T16:36:51Z</time>
      </trkpt>
      <trkpt lat="43.237883" lon="0.887976">
        <ele>310.4</ele>
        <time>2020-02-20T16:37:09Z</time>
      </trkpt>
      <trkpt lat="43.237799" lon="0.888080">
        <ele>313.3</ele>
        <time>2020-02-20T16:37:27Z</time>
      </trkpt>
      <trkpt lat="43.237756" lon="0.888230">
        <ele>316.5</ele>
        <time>2020-02-20T16:37:46Z</time>
      </trkpt>
      <trkpt lat="43.237754" lon="0.888375">
        <ele>319.1</ele>
        <time>2020-02-20T16:38:01Z</time>
      </trkpt>
      <trkpt lat="43.237816" lon="0.888516">
        <ele>319.0</ele>
        <time>2020-02-20T16:38:07Z</time>
      </trkpt>
      <trkpt lat="43.237883" lon="0.888647">
        <ele>319.0</ele>
        <time>2020-02-20T16:38:11Z</time>
      </trkpt>
      <trkpt lat="43.237941" lon="0.888754">
        <ele>318.9</ele>
        <time>2020-02-20T16:38:14Z</time>
      </trkpt>
      <trkpt lat="43.238005" lon="0.888864">
        <ele>316.6</ele>
        <time>2020-02-20T16:38:17Z</time>
      </trkpt>
      <trkpt lat="43.238089" lon="0.888974">
        <ele>315.2</ele>
        <time>2020-02-20T16:38:20Z</time>
      </trkpt>
      <trkpt lat="43.238185" lon="0.889102">
        <ele>314.3</ele>
        <time>2020-02-20T16:38:23Z</time>
      </trkpt>
      <trkpt lat="43.238264" lon="0.889227">
        <ele>312.2</ele>
        <time>2020-02-20T16:38:27Z</time>
      </trkpt>
      <trkpt lat="43.238312" lon="0.889350">
        <ele>311.3</ele>
        <time>2020-02-20T16:38:30Z</time>
      </trkpt>
      <trkpt lat="43.238364" lon="0.889476">
        <ele>310.1</ele>
        <time>2020-02-20T16:38:33Z</time>
      </trkpt>
      <trkpt lat="43.238417" lon="0.889606">
        <ele>309.1</ele>
        <time>2020-02-20T16:38:37Z</time>
      </trkpt>
      <trkpt lat="43.238510" lon="0.889709">
        <ele>306.5</ele>
        <time>2020-02-20T16:38:42Z</time>
      </trkpt>
      <trkpt lat="43.238564" lon="0.889757">
        <ele>307.4</ele>
        <time>2020-02-20T16:39:23Z</time>
      </trkpt>
      <trkpt lat="43.238699" lon="0.889762">
        <ele>302.9</ele>
        <time>2020-02-20T16:39:27Z</time>
      </trkpt>
      <trkpt lat="43.238805" lon="0.889765">
        <ele>300.0</ele>
        <time>2020-02-20T16:39:30Z</time>
      </trkpt>
      <trkpt lat="43.238958" lon="0.889771">
        <ele>296.6</ele>
        <time>2020-02-20T16:39:33Z</time>
      </trkpt>
      <trkpt lat="43.239085" lon="0.889771">
        <ele>295.6</ele>
        <time>2020-02-20T16:39:35Z</time>
      </trkpt>
      <trkpt lat="43.239209" lon="0.889771">
        <ele>294.3</ele>
        <time>2020-02-20T16:39:37Z</time>
      </trkpt>
      <trkpt lat="43.239319" lon="0.889768">
        <ele>294.3</ele>
        <time>2020-02-20T16:39:40Z</time>
      </trkpt>
      <trkpt lat="43.239409" lon="0.889786">
        <ele>297.6</ele>
        <time>2020-02-20T16:39:56Z</time>
      </trkpt>
      <trkpt lat="43.239430" lon="0.889837">
        <ele>348.8</ele>
        <time>2020-02-20T16:42:57Z</time>
      </trkpt>
      <trkpt lat="43.239452" lon="0.889938">
        <ele>299.7</ele>
        <time>2020-02-20T16:45:19Z</time>
      </trkpt>
      <trkpt lat="43.239444" lon="0.889989">
        <ele>299.9</ele>
        <time>2020-02-20T16:45:51Z</time>
      </trkpt>
      <trkpt lat="43.239458" lon="0.890420">
        <ele>347.0</ele>
        <time>2020-02-20T16:46:03Z</time>
      </trkpt>
      <trkpt lat="43.239476" lon="0.890720">
        <ele>345.0</ele>
        <time>2020-02-20T16:46:17Z</time>
      </trkpt>
      <trkpt lat="43.239529" lon="0.890983">
        <ele>342.5</ele>
        <time>2020-02-20T16:46:31Z</time>
      </trkpt>
      <trkpt lat="43.239607" lon="0.891146">
        <ele>340.1</ele>
        <time>2020-02-20T16:46:46Z</time>
      </trkpt>
      <trkpt lat="43.239663" lon="0.891375">
        <ele>336.8</ele>
        <time>2020-02-20T16:47:04Z</time>
      </trkpt>
      <trkpt lat="43.239750" lon="0.891646">
        <ele>331.9</ele>
        <time>2020-02-20T16:47:18Z</time>
        <cmt>Esbayles</cmt>
        <sym>Waypoint</sym>
      </trkpt>
      <trkpt lat="43.239770" lon="0.891632">
        <ele>331.9</ele>
        <time>2020-02-20T16:47:32Z</time>
      </trkpt>
      <trkpt lat="43.239873" lon="0.891495">
        <ele>332.6</ele>
        <time>2020-02-20T16:47:49Z</time>
      </trkpt>
      <trkpt lat="43.240015" lon="0.891272">
        <ele>335.0</ele>
        <time>2020-02-20T16:48:08Z</time>
      </trkpt>
      <trkpt lat="43.240081" lon="0.890951">
        <ele>339.1</ele>
        <time>2020-02-20T16:48:25Z</time>
      </trkpt>
      <trkpt lat="43.240198" lon="0.890612">
        <ele>340.7</ele>
        <time>2020-02-20T16:48:41Z</time>
      </trkpt>
      <trkpt lat="43.240304" lon="0.890348">
        <ele>340.9</ele>
        <time>2020-02-20T16:50:30Z</time>
      </trkpt>
      <trkpt lat="43.240419" lon="0.890242">
        <ele>339.0</ele>
        <time>2020-02-20T16:50:42Z</time>
      </trkpt>
      <trkpt lat="43.240560" lon="0.890197">
        <ele>335.7</ele>
        <time>2020-02-20T16:50:52Z</time>
      </trkpt>
      <trkpt lat="43.240704" lon="0.890196">
        <ele>331.8</ele>
        <time>2020-02-20T16:51:06Z</time>
      </trkpt>
      <trkpt lat="43.240498" lon="0.890171">
        <ele>337.6</ele>
        <time>2020-02-20T16:51:14Z</time>
      </trkpt>
      <trkpt lat="43.240370" lon="0.890079">
        <ele>341.9</ele>
        <time>2020-02-20T16:51:17Z</time>
      </trkpt>
      <trkpt lat="43.240240" lon="0.890103">
        <ele>345.2</ele>
        <time>2020-02-20T16:51:20Z</time>
      </trkpt>
      <trkpt lat="43.240138" lon="0.890374">
        <ele>345.0</ele>
        <time>2020-02-20T16:51:23Z</time>
      </trkpt>
      <trkpt lat="43.240093" lon="0.890653">
        <ele>342.8</ele>
        <time>2020-02-20T16:51:25Z</time>
      </trkpt>
      <trkpt lat="43.240045" lon="0.891101">
        <ele>337.4</ele>
        <time>2020-02-20T16:51:27Z</time>
      </trkpt>
      <trkpt lat="43.239961" lon="0.891338">
        <ele>334.5</ele>
        <time>2020-02-20T16:51:29Z</time>
      </trkpt>
      <trkpt lat="43.239825" lon="0.891569">
        <ele>332.1</ele>
        <time>2020-02-20T16:51:31Z</time>
      </trkpt>
      <trkpt lat="43.239734" lon="0.891764">
        <ele>331.0</ele>
        <time>2020-02-20T16:51:33Z</time>
      </trkpt>
      <trkpt lat="43.239749" lon="0.892190">
        <ele>326.8</ele>
        <time>2020-02-20T16:51:35Z</time>
      </trkpt>
      <trkpt lat="43.239816" lon="0.892662">
        <ele>323.9</ele>
        <time>2020-02-20T16:51:37Z</time>
      </trkpt>
      <trkpt lat="43.239894" lon="0.892992">
        <ele>325.5</ele>
        <time>2020-02-20T16:51:40Z</time>
      </trkpt>
      <trkpt lat="43.239852" lon="0.893515">
        <ele>310.2</ele>
        <time>2020-02-20T16:51:45Z</time>
      </trkpt>
      <trkpt lat="43.239834" lon="0.893653">
        <ele>312.7</ele>
        <time>2020-02-20T16:51:50Z</time>
      </trkpt>
      <trkpt lat="43.239814" lon="0.893800">
        <ele>313.6</ele>
        <time>2020-02-20T16:51:55Z</time>
      </trkpt>
      <trkpt lat="43.239784" lon="0.893928">
        <ele>314.3</ele>
        <time>2020-02-20T16:51:59Z</time>
      </trkpt>
      <trkpt lat="43.239766" lon="0.894055">
        <ele>314.3</ele>
        <time>2020-02-20T16:52:03Z</time>
      </trkpt>
      <trkpt lat="43.239751" lon="0.894188">
        <ele>314.3</ele>
        <time>2020-02-20T16:52:07Z</time>
      </trkpt>
      <trkpt lat="43.239763" lon="0.894331">
        <ele>314.3</ele>
        <time>2020-02-20T16:52:11Z</time>
      </trkpt>
      <trkpt lat="43.239783" lon="0.894480">
        <ele>315.2</ele>
        <time>2020-02-20T16:52:15Z</time>
      </trkpt>
      <trkpt lat="43.239783" lon="0.894644">
        <ele>315.1</ele>
        <time>2020-02-20T16:52:19Z</time>
      </trkpt>
      <trkpt lat="43.239785" lon="0.894822">
        <ele>315.1</ele>
        <time>2020-02-20T16:52:23Z</time>
      </trkpt>
      <trkpt lat="43.239774" lon="0.895003">
        <ele>316.0</ele>
        <time>2020-02-20T16:52:27Z</time>
      </trkpt>
      <trkpt lat="43.239754" lon="0.895160">
        <ele>316.0</ele>
        <time>2020-02-20T16:52:31Z</time>
      </trkpt>
      <trkpt lat="43.239733" lon="0.895306">
        <ele>317.0</ele>
        <time>2020-02-20T16:52:35Z</time>
      </trkpt>
      <trkpt lat="43.239705" lon="0.895473">
        <ele>318.0</ele>
        <time>2020-02-20T16:52:40Z</time>
      </trkpt>
      <trkpt lat="43.239696" lon="0.895640">
        <ele>319.7</ele>
        <time>2020-02-20T16:52:45Z</time>
      </trkpt>
      <trkpt lat="43.239676" lon="0.895784">
        <ele>319.6</ele>
        <time>2020-02-20T16:52:50Z</time>
      </trkpt>
      <trkpt lat="43.239665" lon="0.895934">
        <ele>320.4</ele>
        <time>2020-02-20T16:52:56Z</time>
      </trkpt>
      <trkpt lat="43.239667" lon="0.896124">
        <ele>322.0</ele>
        <time>2020-02-20T16:53:03Z</time>
      </trkpt>
      <trkpt lat="43.239710" lon="0.896284">
        <ele>322.8</ele>
        <time>2020-02-20T16:53:08Z</time>
      </trkpt>
      <trkpt lat="43.239750" lon="0.896430">
        <ele>322.7</ele>
        <time>2020-02-20T16:53:13Z</time>
      </trkpt>
      <trkpt lat="43.239771" lon="0.896568">
        <ele>323.5</ele>
        <time>2020-02-20T16:53:18Z</time>
      </trkpt>
      <trkpt lat="43.239782" lon="0.896754">
        <ele>324.2</ele>
        <time>2020-02-20T16:53:24Z</time>
      </trkpt>
      <trkpt lat="43.239820" lon="0.896919">
        <ele>325.7</ele>
        <time>2020-02-20T16:53:30Z</time>
      </trkpt>
      <trkpt lat="43.239828" lon="0.897056">
        <ele>326.6</ele>
        <time>2020-02-20T16:53:35Z</time>
      </trkpt>
      <trkpt lat="43.239814" lon="0.897198">
        <ele>328.3</ele>
        <time>2020-02-20T16:53:41Z</time>
      </trkpt>
      <trkpt lat="43.239801" lon="0.897334">
        <ele>329.1</ele>
        <time>2020-02-20T16:53:47Z</time>
      </trkpt>
      <trkpt lat="43.239801" lon="0.897489">
        <ele>329.0</ele>
        <time>2020-02-20T16:53:53Z</time>
      </trkpt>
      <trkpt lat="43.239809" lon="0.897626">
        <ele>330.5</ele>
        <time>2020-02-20T16:53:58Z</time>
      </trkpt>
      <trkpt lat="43.239798" lon="0.897775">
        <ele>330.5</ele>
        <time>2020-02-20T16:54:04Z</time>
      </trkpt>
      <trkpt lat="43.239778" lon="0.897910">
        <ele>331.4</ele>
        <time>2020-02-20T16:54:10Z</time>
      </trkpt>
      <trkpt lat="43.239751" lon="0.898059">
        <ele>332.2</ele>
        <time>2020-02-20T16:54:16Z</time>
      </trkpt>
      <trkpt lat="43.239743" lon="0.898208">
        <ele>332.9</ele>
        <time>2020-02-20T16:54:22Z</time>
      </trkpt>
      <trkpt lat="43.239748" lon="0.898360">
        <ele>333.9</ele>
        <time>2020-02-20T16:54:28Z</time>
      </trkpt>
      <trkpt lat="43.239742" lon="0.898490">
        <ele>334.8</ele>
        <time>2020-02-20T16:54:33Z</time>
      </trkpt>
      <trkpt lat="43.239721" lon="0.898626">
        <ele>335.5</ele>
        <time>2020-02-20T16:54:39Z</time>
      </trkpt>
      <trkpt lat="43.239705" lon="0.898757">
        <ele>336.4</ele>
        <time>2020-02-20T16:54:45Z</time>
      </trkpt>
      <trkpt lat="43.239702" lon="0.898898">
        <ele>337.1</ele>
        <time>2020-02-20T16:54:51Z</time>
      </trkpt>
      <trkpt lat="43.239730" lon="0.899021">
        <ele>338.7</ele>
        <time>2020-02-20T16:55:11Z</time>
      </trkpt>
      <trkpt lat="43.239731" lon="0.899173">
        <ele>338.6</ele>
        <time>2020-02-20T16:55:23Z</time>
      </trkpt>
      <trkpt lat="43.239757" lon="0.899325">
        <ele>340.2</ele>
        <time>2020-02-20T16:55:37Z</time>
      </trkpt>
      <trkpt lat="43.239756" lon="0.899496">
        <ele>341.1</ele>
        <time>2020-02-20T16:55:50Z</time>
      </trkpt>
      <trkpt lat="43.239757" lon="0.899614">
        <ele>342.8</ele>
        <time>2020-02-20T16:56:02Z</time>
      </trkpt>
      <trkpt lat="43.239741" lon="0.899738">
        <ele>344.4</ele>
        <time>2020-02-20T16:56:13Z</time>
      </trkpt>
      <trkpt lat="43.239710" lon="0.899855">
        <ele>345.2</ele>
        <time>2020-02-20T16:56:24Z</time>
      </trkpt>
      <trkpt lat="43.239685" lon="0.900007">
        <ele>345.2</ele>
        <time>2020-02-20T16:56:35Z</time>
      </trkpt>
      <trkpt lat="43.239652" lon="0.900157">
        <ele>346.0</ele>
        <time>2020-02-20T16:56:44Z</time>
      </trkpt>
      <trkpt lat="43.239615" lon="0.900312">
        <ele>346.1</ele>
        <time>2020-02-20T16:56:49Z</time>
      </trkpt>
      <trkpt lat="43.239589" lon="0.900473">
        <ele>347.0</ele>
        <time>2020-02-20T16:56:54Z</time>
      </trkpt>
      <trkpt lat="43.239566" lon="0.900632">
        <ele>347.0</ele>
        <time>2020-02-20T16:56:59Z</time>
      </trkpt>
      <trkpt lat="43.239549" lon="0.900759">
        <ele>347.0</ele>
        <time>2020-02-20T16:57:03Z</time>
      </trkpt>
      <trkpt lat="43.239529" lon="0.900899">
        <ele>347.0</ele>
        <time>2020-02-20T16:57:07Z</time>
      </trkpt>
      <trkpt lat="43.239497" lon="0.901042">
        <ele>347.0</ele>
        <time>2020-02-20T16:57:11Z</time>
      </trkpt>
      <trkpt lat="43.239465" lon="0.901179">
        <ele>347.0</ele>
        <time>2020-02-20T16:57:14Z</time>
      </trkpt>
      <trkpt lat="43.239436" lon="0.901319">
        <ele>347.0</ele>
        <time>2020-02-20T16:57:17Z</time>
      </trkpt>
      <trkpt lat="43.239419" lon="0.901471">
        <ele>347.0</ele>
        <time>2020-02-20T16:57:20Z</time>
      </trkpt>
      <trkpt lat="43.239391" lon="0.901618">
        <ele>347.1</ele>
        <time>2020-02-20T16:57:23Z</time>
      </trkpt>
      <trkpt lat="43.239353" lon="0.901782">
        <ele>344.5</ele>
        <time>2020-02-20T16:57:26Z</time>
      </trkpt>
      <trkpt lat="43.239299" lon="0.901930">
        <ele>342.7</ele>
        <time>2020-02-20T16:57:29Z</time>
      </trkpt>
      <trkpt lat="43.239249" lon="0.902080">
        <ele>341.3</ele>
        <time>2020-02-20T16:57:32Z</time>
      </trkpt>
      <trkpt lat="43.239207" lon="0.902224">
        <ele>339.0</ele>
        <time>2020-02-20T16:57:35Z</time>
      </trkpt>
      <trkpt lat="43.239189" lon="0.902356">
        <ele>337.7</ele>
        <time>2020-02-20T16:57:38Z</time>
      </trkpt>
      <trkpt lat="43.239176" lon="0.902488">
        <ele>335.6</ele>
        <time>2020-02-20T16:57:41Z</time>
      </trkpt>
      <trkpt lat="43.239131" lon="0.902649">
        <ele>334.2</ele>
        <time>2020-02-20T16:57:44Z</time>
      </trkpt>
      <trkpt lat="43.239073" lon="0.902789">
        <ele>333.0</ele>
        <time>2020-02-20T16:57:47Z</time>
      </trkpt>
      <trkpt lat="43.239010" lon="0.902937">
        <ele>332.1</ele>
        <time>2020-02-20T16:57:50Z</time>
      </trkpt>
      <trkpt lat="43.238950" lon="0.903106">
        <ele>331.0</ele>
        <time>2020-02-20T16:57:53Z</time>
      </trkpt>
      <trkpt lat="43.238898" lon="0.903297">
        <ele>330.1</ele>
        <time>2020-02-20T16:57:56Z</time>
      </trkpt>
      <trkpt lat="43.238852" lon="0.903451">
        <ele>329.2</ele>
        <time>2020-02-20T16:57:59Z</time>
      </trkpt>
      <trkpt lat="43.238779" lon="0.903550">
        <ele>327.4</ele>
        <time>2020-02-20T16:58:02Z</time>
      </trkpt>
      <trkpt lat="43.238710" lon="0.903699">
        <ele>326.4</ele>
        <time>2020-02-20T16:58:05Z</time>
      </trkpt>
      <trkpt lat="43.238651" lon="0.903852">
        <ele>325.5</ele>
        <time>2020-02-20T16:58:08Z</time>
      </trkpt>
      <trkpt lat="43.238583" lon="0.904002">
        <ele>324.4</ele>
        <time>2020-02-20T16:58:11Z</time>
      </trkpt>
      <trkpt lat="43.238497" lon="0.904163">
        <ele>323.6</ele>
        <time>2020-02-20T16:58:14Z</time>
      </trkpt>
      <trkpt lat="43.238407" lon="0.904323">
        <ele>323.5</ele>
        <time>2020-02-20T16:58:17Z</time>
      </trkpt>
      <trkpt lat="43.238333" lon="0.904473">
        <ele>322.5</ele>
        <time>2020-02-20T16:58:20Z</time>
      </trkpt>
      <trkpt lat="43.238275" lon="0.904636">
        <ele>321.7</ele>
        <time>2020-02-20T16:58:23Z</time>
      </trkpt>
      <trkpt lat="43.238226" lon="0.904803">
        <ele>320.7</ele>
        <time>2020-02-20T16:58:26Z</time>
      </trkpt>
      <trkpt lat="43.238175" lon="0.904947">
        <ele>319.8</ele>
        <time>2020-02-20T16:58:29Z</time>
      </trkpt>
      <trkpt lat="43.238111" lon="0.905061">
        <ele>317.5</ele>
        <time>2020-02-20T16:58:32Z</time>
      </trkpt>
      <trkpt lat="43.238026" lon="0.905157">
        <ele>315.1</ele>
        <time>2020-02-20T16:58:36Z</time>
      </trkpt>
      <trkpt lat="43.237913" lon="0.905248">
        <ele>312.0</ele>
        <time>2020-02-20T16:58:41Z</time>
      </trkpt>
      <trkpt lat="43.237805" lon="0.905291">
        <ele>309.9</ele>
        <time>2020-02-20T16:58:45Z</time>
      </trkpt>
      <trkpt lat="43.237710" lon="0.905303">
        <ele>308.2</ele>
        <time>2020-02-20T16:58:54Z</time>
      </trkpt>
      <trkpt lat="43.237554" lon="0.905313">
        <ele>307.3</ele>
        <time>2020-02-20T16:59:02Z</time>
      </trkpt>
      <trkpt lat="43.237460" lon="0.905404">
        <ele>306.5</ele>
        <time>2020-02-20T16:59:06Z</time>
      </trkpt>
      <trkpt lat="43.237372" lon="0.905512">
        <ele>305.6</ele>
        <time>2020-02-20T16:59:09Z</time>
      </trkpt>
      <trkpt lat="43.237273" lon="0.905660">
        <ele>303.4</ele>
        <time>2020-02-20T16:59:12Z</time>
      </trkpt>
      <trkpt lat="43.237184" lon="0.905763">
        <ele>302.2</ele>
        <time>2020-02-20T16:59:15Z</time>
      </trkpt>
      <trkpt lat="43.237100" lon="0.905863">
        <ele>301.3</ele>
        <time>2020-02-20T16:59:18Z</time>
      </trkpt>
      <trkpt lat="43.237009" lon="0.905973">
        <ele>300.4</ele>
        <time>2020-02-20T16:59:22Z</time>
      </trkpt>
      <trkpt lat="43.236935" lon="0.906095">
        <ele>298.5</ele>
        <time>2020-02-20T16:59:26Z</time>
      </trkpt>
      <trkpt lat="43.236834" lon="0.906187">
        <ele>296.0</ele>
        <time>2020-02-20T16:59:30Z</time>
      </trkpt>
      <trkpt lat="43.236726" lon="0.906241">
        <ele>293.8</ele>
        <time>2020-02-20T16:59:34Z</time>
      </trkpt>
      <trkpt lat="43.236613" lon="0.906310">
        <ele>292.9</ele>
        <time>2020-02-20T16:59:37Z</time>
      </trkpt>
      <trkpt lat="43.236525" lon="0.906390">
        <ele>291.6</ele>
        <time>2020-02-20T16:59:39Z</time>
      </trkpt>
      <trkpt lat="43.236432" lon="0.906437">
        <ele>290.8</ele>
        <time>2020-02-20T16:59:41Z</time>
      </trkpt>
      <trkpt lat="43.236321" lon="0.906497">
        <ele>289.0</ele>
        <time>2020-02-20T16:59:44Z</time>
      </trkpt>
      <trkpt lat="43.236245" lon="0.906563">
        <ele>288.4</ele>
        <time>2020-02-20T16:59:56Z</time>
        <cmt>Montoulieu </cmt>
        <sym>Waypoint</sym>
      </trkpt>
      <trkpt lat="43.236165" lon="0.906694">
        <ele>288.3</ele>
        <time>2020-02-20T17:02:51Z</time>
      </trkpt>
      <trkpt lat="43.236147" lon="0.906832">
        <ele>288.3</ele>
        <time>2020-02-20T17:02:54Z</time>
      </trkpt>
      <trkpt lat="43.236171" lon="0.906967">
        <ele>288.3</ele>
        <time>2020-02-20T17:02:57Z</time>
      </trkpt>
      <trkpt lat="43.236200" lon="0.907096">
        <ele>288.3</ele>
        <time>2020-02-20T17:03:00Z</time>
      </trkpt>
      <trkpt lat="43.236198" lon="0.907247">
        <ele>290.8</ele>
        <time>2020-02-20T17:03:04Z</time>
      </trkpt>
      <trkpt lat="43.236151" lon="0.907383">
        <ele>290.8</ele>
        <time>2020-02-20T17:03:08Z</time>
      </trkpt>
      <trkpt lat="43.236120" lon="0.907638">
        <ele>291.0</ele>
        <time>2020-02-20T17:05:57Z</time>
      </trkpt>
      <trkpt lat="43.236155" lon="0.907794">
        <ele>289.4</ele>
        <time>2020-02-20T17:06:00Z</time>
      </trkpt>
      <trkpt lat="43.236125" lon="0.907964">
        <ele>286.8</ele>
        <time>2020-02-20T17:06:03Z</time>
      </trkpt>
      <trkpt lat="43.236096" lon="0.908088">
        <ele>285.2</ele>
        <time>2020-02-20T17:06:05Z</time>
      </trkpt>
      <trkpt lat="43.236064" lon="0.908222">
        <ele>283.2</ele>
        <time>2020-02-20T17:06:07Z</time>
      </trkpt>
      <trkpt lat="43.236079" lon="0.908369">
        <ele>281.6</ele>
        <time>2020-02-20T17:06:09Z</time>
      </trkpt>
      <trkpt lat="43.236163" lon="0.908481">
        <ele>280.4</ele>
        <time>2020-02-20T17:06:11Z</time>
      </trkpt>
      <trkpt lat="43.236267" lon="0.908556">
        <ele>279.5</ele>
        <time>2020-02-20T17:06:13Z</time>
      </trkpt>
      <trkpt lat="43.236353" lon="0.908656">
        <ele>279.5</ele>
        <time>2020-02-20T17:06:15Z</time>
      </trkpt>
      <trkpt lat="43.236416" lon="0.908773">
        <ele>279.6</ele>
        <time>2020-02-20T17:06:17Z</time>
      </trkpt>
      <trkpt lat="43.236479" lon="0.908921">
        <ele>279.6</ele>
        <time>2020-02-20T17:06:20Z</time>
      </trkpt>
      <trkpt lat="43.236540" lon="0.909068">
        <ele>279.7</ele>
        <time>2020-02-20T17:06:23Z</time>
      </trkpt>
      <trkpt lat="43.236588" lon="0.909216">
        <ele>282.1</ele>
        <time>2020-02-20T17:06:26Z</time>
      </trkpt>
      <trkpt lat="43.236640" lon="0.909364">
        <ele>283.1</ele>
        <time>2020-02-20T17:06:29Z</time>
      </trkpt>
      <trkpt lat="43.236680" lon="0.909513">
        <ele>284.1</ele>
        <time>2020-02-20T17:06:32Z</time>
      </trkpt>
      <trkpt lat="43.236718" lon="0.909654">
        <ele>284.9</ele>
        <time>2020-02-20T17:06:36Z</time>
      </trkpt>
      <trkpt lat="43.236761" lon="0.909772">
        <ele>284.9</ele>
        <time>2020-02-20T17:06:41Z</time>
      </trkpt>
      <trkpt lat="43.236793" lon="0.909910">
        <ele>285.8</ele>
        <time>2020-02-20T17:07:23Z</time>
      </trkpt>
      <trkpt lat="43.236815" lon="0.910033">
        <ele>285.8</ele>
        <time>2020-02-20T17:07:26Z</time>
      </trkpt>
      <trkpt lat="43.236847" lon="0.910202">
        <ele>285.9</ele>
        <time>2020-02-20T17:07:29Z</time>
      </trkpt>
      <trkpt lat="43.236876" lon="0.910336">
        <ele>285.9</ele>
        <time>2020-02-20T17:07:31Z</time>
      </trkpt>
      <trkpt lat="43.236914" lon="0.910482">
        <ele>283.5</ele>
        <time>2020-02-20T17:07:33Z</time>
      </trkpt>
      <trkpt lat="43.236961" lon="0.910635">
        <ele>283.6</ele>
        <time>2020-02-20T17:07:35Z</time>
      </trkpt>
      <trkpt lat="43.237015" lon="0.910777">
        <ele>282.7</ele>
        <time>2020-02-20T17:07:37Z</time>
      </trkpt>
      <trkpt lat="43.237079" lon="0.910927">
        <ele>282.7</ele>
        <time>2020-02-20T17:07:39Z</time>
      </trkpt>
      <trkpt lat="43.237167" lon="0.911066">
        <ele>281.9</ele>
        <time>2020-02-20T17:07:41Z</time>
      </trkpt>
      <trkpt lat="43.237271" lon="0.911161">
        <ele>281.9</ele>
        <time>2020-02-20T17:07:43Z</time>
      </trkpt>
      <trkpt lat="43.237376" lon="0.911223">
        <ele>281.9</ele>
        <time>2020-02-20T17:07:45Z</time>
      </trkpt>
      <trkpt lat="43.237483" lon="0.911279">
        <ele>281.9</ele>
        <time>2020-02-20T17:07:47Z</time>
      </trkpt>
      <trkpt lat="43.237584" lon="0.911333">
        <ele>282.0</ele>
        <time>2020-02-20T17:07:49Z</time>
      </trkpt>
      <trkpt lat="43.237672" lon="0.911387">
        <ele>282.0</ele>
        <time>2020-02-20T17:07:51Z</time>
      </trkpt>
      <trkpt lat="43.237793" lon="0.911460">
        <ele>284.4</ele>
        <time>2020-02-20T17:07:54Z</time>
      </trkpt>
      <trkpt lat="43.237903" lon="0.911528">
        <ele>285.2</ele>
        <time>2020-02-20T17:07:57Z</time>
      </trkpt>
      <trkpt lat="43.238020" lon="0.911607">
        <ele>285.2</ele>
        <time>2020-02-20T17:08:00Z</time>
      </trkpt>
      <trkpt lat="43.238143" lon="0.911682">
        <ele>285.2</ele>
        <time>2020-02-20T17:08:03Z</time>
      </trkpt>
      <trkpt lat="43.238281" lon="0.911750">
        <ele>285.2</ele>
        <time>2020-02-20T17:08:06Z</time>
      </trkpt>
      <trkpt lat="43.238392" lon="0.911793">
        <ele>285.2</ele>
        <time>2020-02-20T17:08:08Z</time>
      </trkpt>
      <trkpt lat="43.238526" lon="0.911810">
        <ele>285.2</ele>
        <time>2020-02-20T17:08:10Z</time>
      </trkpt>
      <trkpt lat="43.238666" lon="0.911803">
        <ele>282.6</ele>
        <time>2020-02-20T17:08:12Z</time>
      </trkpt>
      <trkpt lat="43.238806" lon="0.911785">
        <ele>281.7</ele>
        <time>2020-02-20T17:08:14Z</time>
      </trkpt>
      <trkpt lat="43.238962" lon="0.911782">
        <ele>280.6</ele>
        <time>2020-02-20T17:08:16Z</time>
      </trkpt>
      <trkpt lat="43.239110" lon="0.911821">
        <ele>279.4</ele>
        <time>2020-02-20T17:08:18Z</time>
      </trkpt>
      <trkpt lat="43.239253" lon="0.911902">
        <ele>278.4</ele>
        <time>2020-02-20T17:08:20Z</time>
      </trkpt>
      <trkpt lat="43.239386" lon="0.912003">
        <ele>275.7</ele>
        <time>2020-02-20T17:08:22Z</time>
      </trkpt>
      <trkpt lat="43.239509" lon="0.912094">
        <ele>273.5</ele>
        <time>2020-02-20T17:08:24Z</time>
      </trkpt>
      <trkpt lat="43.239593" lon="0.912164">
        <ele>271.9</ele>
        <time>2020-02-20T17:08:26Z</time>
      </trkpt>
      <trkpt lat="43.239666" lon="0.912240">
        <ele>269.9</ele>
        <time>2020-02-20T17:08:47Z</time>
      </trkpt>
      <trkpt lat="43.239720" lon="0.912381">
        <ele>269.9</ele>
        <time>2020-02-20T17:08:50Z</time>
      </trkpt>
      <trkpt lat="43.239765" lon="0.912519">
        <ele>268.9</ele>
        <time>2020-02-20T17:08:52Z</time>
      </trkpt>
      <trkpt lat="43.239819" lon="0.912679">
        <ele>268.9</ele>
        <time>2020-02-20T17:08:54Z</time>
      </trkpt>
      <trkpt lat="43.239879" lon="0.912847">
        <ele>268.2</ele>
        <time>2020-02-20T17:08:56Z</time>
      </trkpt>
      <trkpt lat="43.239932" lon="0.913015">
        <ele>267.4</ele>
        <time>2020-02-20T17:08:58Z</time>
      </trkpt>
      <trkpt lat="43.239976" lon="0.913183">
        <ele>267.4</ele>
        <time>2020-02-20T17:09:00Z</time>
      </trkpt>
      <trkpt lat="43.239979" lon="0.913355">
        <ele>267.4</ele>
        <time>2020-02-20T17:09:02Z</time>
      </trkpt>
      <trkpt lat="43.239920" lon="0.913491">
        <ele>267.5</ele>
        <time>2020-02-20T17:09:04Z</time>
      </trkpt>
      <trkpt lat="43.239837" lon="0.913588">
        <ele>267.5</ele>
        <time>2020-02-20T17:09:06Z</time>
      </trkpt>
      <trkpt lat="43.239757" lon="0.913671">
        <ele>267.5</ele>
        <time>2020-02-20T17:09:08Z</time>
      </trkpt>
      <trkpt lat="43.239670" lon="0.913750">
        <ele>267.5</ele>
        <time>2020-02-20T17:09:10Z</time>
      </trkpt>
      <trkpt lat="43.239591" lon="0.913829">
        <ele>267.5</ele>
        <time>2020-02-20T17:09:12Z</time>
      </trkpt>
      <trkpt lat="43.239496" lon="0.913956">
        <ele>267.6</ele>
        <time>2020-02-20T17:09:15Z</time>
      </trkpt>
      <trkpt lat="43.239425" lon="0.914058">
        <ele>267.6</ele>
        <time>2020-02-20T17:09:17Z</time>
      </trkpt>
      <trkpt lat="43.239355" lon="0.914174">
        <ele>267.6</ele>
        <time>2020-02-20T17:09:19Z</time>
      </trkpt>
      <trkpt lat="43.239286" lon="0.914297">
        <ele>267.6</ele>
        <time>2020-02-20T17:09:21Z</time>
      </trkpt>
      <trkpt lat="43.239216" lon="0.914412">
        <ele>267.6</ele>
        <time>2020-02-20T17:09:23Z</time>
      </trkpt>
      <trkpt lat="43.239149" lon="0.914524">
        <ele>267.6</ele>
        <time>2020-02-20T17:09:25Z</time>
      </trkpt>
      <trkpt lat="43.239074" lon="0.914641">
        <ele>266.6</ele>
        <time>2020-02-20T17:09:27Z</time>
      </trkpt>
      <trkpt lat="43.238991" lon="0.914763">
        <ele>266.6</ele>
        <time>2020-02-20T17:09:29Z</time>
      </trkpt>
      <trkpt lat="43.238905" lon="0.914868">
        <ele>266.6</ele>
        <time>2020-02-20T17:09:31Z</time>
      </trkpt>
      <trkpt lat="43.238823" lon="0.914958">
        <ele>266.6</ele>
        <time>2020-02-20T17:09:33Z</time>
      </trkpt>
      <trkpt lat="43.238747" lon="0.915041">
        <ele>266.6</ele>
        <time>2020-02-20T17:09:35Z</time>
      </trkpt>
      <trkpt lat="43.238668" lon="0.915127">
        <ele>266.6</ele>
        <time>2020-02-20T17:09:37Z</time>
      </trkpt>
      <trkpt lat="43.238580" lon="0.915202">
        <ele>266.7</ele>
        <time>2020-02-20T17:09:39Z</time>
      </trkpt>
      <trkpt lat="43.238489" lon="0.915238">
        <ele>266.7</ele>
        <time>2020-02-20T17:09:41Z</time>
      </trkpt>
      <trkpt lat="43.238357" lon="0.915220">
        <ele>266.7</ele>
        <time>2020-02-20T17:09:44Z</time>
      </trkpt>
      <trkpt lat="43.238267" lon="0.915167">
        <ele>266.7</ele>
        <time>2020-02-20T17:09:47Z</time>
      </trkpt>
      <trkpt lat="43.238185" lon="0.915113">
        <ele>269.0</ele>
        <time>2020-02-20T17:09:51Z</time>
      </trkpt>
      <trkpt lat="43.238091" lon="0.915078">
        <ele>270.0</ele>
        <time>2020-02-20T17:09:55Z</time>
      </trkpt>
      <trkpt lat="43.238005" lon="0.915005">
        <ele>271.8</ele>
        <time>2020-02-20T17:09:59Z</time>
      </trkpt>
      <trkpt lat="43.237954" lon="0.914922">
        <ele>273.0</ele>
        <time>2020-02-20T17:10:55Z</time>
      </trkpt>
      <trkpt lat="43.237926" lon="0.914803">
        <ele>273.3</ele>
        <time>2020-02-20T17:11:44Z</time>
      </trkpt>
      <trkpt lat="43.237907" lon="0.914681">
        <ele>273.3</ele>
        <time>2020-02-20T17:11:47Z</time>
      </trkpt>
      <trkpt lat="43.237872" lon="0.914528">
        <ele>274.1</ele>
        <time>2020-02-20T17:11:50Z</time>
      </trkpt>
      <trkpt lat="43.237823" lon="0.914384">
        <ele>275.1</ele>
        <time>2020-02-20T17:11:53Z</time>
      </trkpt>
      <trkpt lat="43.237758" lon="0.914274">
        <ele>275.8</ele>
        <time>2020-02-20T17:11:56Z</time>
      </trkpt>
      <trkpt lat="43.237683" lon="0.914186">
        <ele>276.9</ele>
        <time>2020-02-20T17:11:59Z</time>
      </trkpt>
      <trkpt lat="43.237597" lon="0.914137">
        <ele>276.9</ele>
        <time>2020-02-20T17:12:02Z</time>
      </trkpt>
      <trkpt lat="43.237482" lon="0.914170">
        <ele>277.8</ele>
        <time>2020-02-20T17:12:06Z</time>
      </trkpt>
      <trkpt lat="43.237407" lon="0.914241">
        <ele>278.7</ele>
        <time>2020-02-20T17:12:09Z</time>
      </trkpt>
      <trkpt lat="43.237316" lon="0.914320">
        <ele>279.5</ele>
        <time>2020-02-20T17:12:14Z</time>
      </trkpt>
      <trkpt lat="43.237238" lon="0.914392">
        <ele>280.3</ele>
        <time>2020-02-20T17:12:18Z</time>
      </trkpt>
      <trkpt lat="43.237157" lon="0.914466">
        <ele>281.2</ele>
        <time>2020-02-20T17:12:22Z</time>
      </trkpt>
      <trkpt lat="43.237068" lon="0.914553">
        <ele>282.1</ele>
        <time>2020-02-20T17:12:27Z</time>
      </trkpt>
      <trkpt lat="43.236993" lon="0.914632">
        <ele>283.0</ele>
        <time>2020-02-20T17:12:31Z</time>
      </trkpt>
      <trkpt lat="43.236911" lon="0.914730">
        <ele>284.0</ele>
        <time>2020-02-20T17:12:36Z</time>
      </trkpt>
      <trkpt lat="43.236870" lon="0.914853">
        <ele>285.0</ele>
        <time>2020-02-20T17:12:43Z</time>
      </trkpt>
      <trkpt lat="43.236826" lon="0.914963">
        <ele>285.0</ele>
        <time>2020-02-20T17:12:50Z</time>
        <cmt>La Boubie</cmt>
        <sym>Waypoint</sym>
      </trkpt>
      <trkpt lat="43.236731" lon="0.914950">
        <ele>285.0</ele>
        <time>2020-02-20T17:12:56Z</time>
      </trkpt>
      <trkpt lat="43.236590" lon="0.914969">
        <ele>286.8</ele>
        <time>2020-02-20T17:13:11Z</time>
      </trkpt>
      <trkpt lat="43.236436" lon="0.914922">
        <ele>289.5</ele>
        <time>2020-02-20T17:13:25Z</time>
      </trkpt>
      <trkpt lat="43.236320" lon="0.914885">
        <ele>291.2</ele>
        <time>2020-02-20T17:13:40Z</time>
      </trkpt>
      <trkpt lat="43.236215" lon="0.914813">
        <ele>293.6</ele>
        <time>2020-02-20T17:13:56Z</time>
      </trkpt>
      <trkpt lat="43.236089" lon="0.914736">
        <ele>295.1</ele>
        <time>2020-02-20T17:14:09Z</time>
      </trkpt>
      <trkpt lat="43.235976" lon="0.914602">
        <ele>296.8</ele>
        <time>2020-02-20T17:14:22Z</time>
      </trkpt>
      <trkpt lat="43.235874" lon="0.914491">
        <ele>298.5</ele>
        <time>2020-02-20T17:14:34Z</time>
      </trkpt>
      <trkpt lat="43.235781" lon="0.914393">
        <ele>299.2</ele>
        <time>2020-02-20T17:14:46Z</time>
      </trkpt>
      <trkpt lat="43.235704" lon="0.914243">
        <ele>301.8</ele>
        <time>2020-02-20T17:15:00Z</time>
      </trkpt>
      <trkpt lat="43.235613" lon="0.914115">
        <ele>304.5</ele>
        <time>2020-02-20T17:15:16Z</time>
      </trkpt>
      <trkpt lat="43.235503" lon="0.914026">
        <ele>306.2</ele>
        <time>2020-02-20T17:15:29Z</time>
      </trkpt>
      <trkpt lat="43.235404" lon="0.913959">
        <ele>306.9</ele>
        <time>2020-02-20T17:15:39Z</time>
      </trkpt>
      <trkpt lat="43.235332" lon="0.913895">
        <ele>308.0</ele>
        <time>2020-02-20T17:16:24Z</time>
      </trkpt>
      <trkpt lat="43.235247" lon="0.913815">
        <ele>309.8</ele>
        <time>2020-02-20T17:16:35Z</time>
      </trkpt>
      <trkpt lat="43.235150" lon="0.913749">
        <ele>311.4</ele>
        <time>2020-02-20T17:16:48Z</time>
      </trkpt>
      <trkpt lat="43.235052" lon="0.913636">
        <ele>312.2</ele>
        <time>2020-02-20T17:17:01Z</time>
      </trkpt>
      <trkpt lat="43.234972" lon="0.913530">
        <ele>313.0</ele>
        <time>2020-02-20T17:17:11Z</time>
      </trkpt>
      <trkpt lat="43.234911" lon="0.913395">
        <ele>314.6</ele>
        <time>2020-02-20T17:17:21Z</time>
      </trkpt>
      <trkpt lat="43.234865" lon="0.913255">
        <ele>315.3</ele>
        <time>2020-02-20T17:17:31Z</time>
      </trkpt>
      <trkpt lat="43.234807" lon="0.913124">
        <ele>317.1</ele>
        <time>2020-02-20T17:17:42Z</time>
      </trkpt>
      <trkpt lat="43.234733" lon="0.913015">
        <ele>318.9</ele>
        <time>2020-02-20T17:17:54Z</time>
      </trkpt>
      <trkpt lat="43.234660" lon="0.912898">
        <ele>321.3</ele>
        <time>2020-02-20T17:18:06Z</time>
      </trkpt>
      <trkpt lat="43.234600" lon="0.912792">
        <ele>322.2</ele>
        <time>2020-02-20T17:18:18Z</time>
      </trkpt>
      <trkpt lat="43.234521" lon="0.912720">
        <ele>322.9</ele>
        <time>2020-02-20T17:18:45Z</time>
      </trkpt>
      <trkpt lat="43.234425" lon="0.912679">
        <ele>323.9</ele>
        <time>2020-02-20T17:18:58Z</time>
      </trkpt>
      <trkpt lat="43.234309" lon="0.912675">
        <ele>324.7</ele>
        <time>2020-02-20T17:19:05Z</time>
      </trkpt>
      <trkpt lat="43.234171" lon="0.912707">
        <ele>324.7</ele>
        <time>2020-02-20T17:19:12Z</time>
      </trkpt>
      <trkpt lat="43.234045" lon="0.912760">
        <ele>325.6</ele>
        <time>2020-02-20T17:19:19Z</time>
      </trkpt>
      <trkpt lat="43.233912" lon="0.912810">
        <ele>326.4</ele>
        <time>2020-02-20T17:19:26Z</time>
      </trkpt>
      <trkpt lat="43.233776" lon="0.912824">
        <ele>327.2</ele>
        <time>2020-02-20T17:19:33Z</time>
      </trkpt>
      <trkpt lat="43.233641" lon="0.912882">
        <ele>327.2</ele>
        <time>2020-02-20T17:19:40Z</time>
      </trkpt>
      <trkpt lat="43.233527" lon="0.912937">
        <ele>327.9</ele>
        <time>2020-02-20T17:19:46Z</time>
      </trkpt>
      <trkpt lat="43.233410" lon="0.913025">
        <ele>328.7</ele>
        <time>2020-02-20T17:19:52Z</time>
      </trkpt>
      <trkpt lat="43.233307" lon="0.913087">
        <ele>329.6</ele>
        <time>2020-02-20T17:19:57Z</time>
      </trkpt>
      <trkpt lat="43.233205" lon="0.913138">
        <ele>330.5</ele>
        <time>2020-02-20T17:20:03Z</time>
      </trkpt>
      <trkpt lat="43.233091" lon="0.913207">
        <ele>331.3</ele>
        <time>2020-02-20T17:20:10Z</time>
      </trkpt>
      <trkpt lat="43.232976" lon="0.913274">
        <ele>331.3</ele>
        <time>2020-02-20T17:20:17Z</time>
      </trkpt>
      <trkpt lat="43.232864" lon="0.913357">
        <ele>331.2</ele>
        <time>2020-02-20T17:20:23Z</time>
      </trkpt>
      <trkpt lat="43.232752" lon="0.913459">
        <ele>332.1</ele>
        <time>2020-02-20T17:20:36Z</time>
      </trkpt>
      <trkpt lat="43.232662" lon="0.913507">
        <ele>332.8</ele>
        <time>2020-02-20T17:21:11Z</time>
      </trkpt>
      <trkpt lat="43.232564" lon="0.913502">
        <ele>332.9</ele>
        <time>2020-02-20T17:21:20Z</time>
      </trkpt>
      <trkpt lat="43.232453" lon="0.913425">
        <ele>334.6</ele>
        <time>2020-02-20T17:21:33Z</time>
      </trkpt>
      <trkpt lat="43.232349" lon="0.913338">
        <ele>335.4</ele>
        <time>2020-02-20T17:21:45Z</time>
      </trkpt>
      <trkpt lat="43.232229" lon="0.913291">
        <ele>337.0</ele>
        <time>2020-02-20T17:21:59Z</time>
      </trkpt>
      <trkpt lat="43.232084" lon="0.913216">
        <ele>339.6</ele>
        <time>2020-02-20T17:22:16Z</time>
      </trkpt>
      <trkpt lat="43.231963" lon="0.913152">
        <ele>341.9</ele>
        <time>2020-02-20T17:22:31Z</time>
      </trkpt>
      <trkpt lat="43.231802" lon="0.913142">
        <ele>344.3</ele>
        <time>2020-02-20T17:22:45Z</time>
      </trkpt>
      <trkpt lat="43.231686" lon="0.913147">
        <ele>345.8</ele>
        <time>2020-02-20T17:22:57Z</time>
      </trkpt>
      <trkpt lat="43.231570" lon="0.913145">
        <ele>347.5</ele>
        <time>2020-02-20T17:23:10Z</time>
      </trkpt>
      <trkpt lat="43.231475" lon="0.913065">
        <ele>348.3</ele>
        <time>2020-02-20T17:23:23Z</time>
      </trkpt>
      <trkpt lat="43.231438" lon="0.912906">
        <ele>350.9</ele>
        <time>2020-02-20T17:23:35Z</time>
      </trkpt>
      <trkpt lat="43.231421" lon="0.912762">
        <ele>352.8</ele>
        <time>2020-02-20T17:23:48Z</time>
      </trkpt>
      <trkpt lat="43.231372" lon="0.912624">
        <ele>353.5</ele>
        <time>2020-02-20T17:23:59Z</time>
      </trkpt>
      <trkpt lat="43.231315" lon="0.912489">
        <ele>355.3</ele>
        <time>2020-02-20T17:24:11Z</time>
      </trkpt>
      <trkpt lat="43.231277" lon="0.912469">
        <ele>354.3</ele>
        <time>2020-02-20T17:25:07Z</time>
      </trkpt>
      <trkpt lat="43.231168" lon="0.912550">
        <ele>354.3</ele>
        <time>2020-02-20T17:25:14Z</time>
      </trkpt>
      <trkpt lat="43.231085" lon="0.912631">
        <ele>354.3</ele>
        <time>2020-02-20T17:25:18Z</time>
      </trkpt>
      <trkpt lat="43.231015" lon="0.912719">
        <ele>354.3</ele>
        <time>2020-02-20T17:25:22Z</time>
      </trkpt>
      <trkpt lat="43.230933" lon="0.912818">
        <ele>356.7</ele>
        <time>2020-02-20T17:25:27Z</time>
      </trkpt>
      <trkpt lat="43.230849" lon="0.912893">
        <ele>357.5</ele>
        <time>2020-02-20T17:25:32Z</time>
      </trkpt>
      <trkpt lat="43.230777" lon="0.912979">
        <ele>358.5</ele>
        <time>2020-02-20T17:25:37Z</time>
      </trkpt>
      <trkpt lat="43.230667" lon="0.913018">
        <ele>360.3</ele>
        <time>2020-02-20T17:25:43Z</time>
      </trkpt>
      <trkpt lat="43.230560" lon="0.912995">
        <ele>362.2</ele>
        <time>2020-02-20T17:25:49Z</time>
      </trkpt>
      <trkpt lat="43.230453" lon="0.912959">
        <ele>363.0</ele>
        <time>2020-02-20T17:25:56Z</time>
      </trkpt>
      <trkpt lat="43.230347" lon="0.912937">
        <ele>363.0</ele>
        <time>2020-02-20T17:26:03Z</time>
      </trkpt>
      <trkpt lat="43.230226" lon="0.912924">
        <ele>363.8</ele>
        <time>2020-02-20T17:26:10Z</time>
      </trkpt>
      <trkpt lat="43.230117" lon="0.912927">
        <ele>364.6</ele>
        <time>2020-02-20T17:26:16Z</time>
      </trkpt>
      <trkpt lat="43.229988" lon="0.912931">
        <ele>364.7</ele>
        <time>2020-02-20T17:26:23Z</time>
      </trkpt>
      <trkpt lat="43.229873" lon="0.912941">
        <ele>364.6</ele>
        <time>2020-02-20T17:26:29Z</time>
      </trkpt>
      <trkpt lat="43.229764" lon="0.912967">
        <ele>364.6</ele>
        <time>2020-02-20T17:26:35Z</time>
      </trkpt>
      <trkpt lat="43.229643" lon="0.912995">
        <ele>364.7</ele>
        <time>2020-02-20T17:26:39Z</time>
      </trkpt>
      <trkpt lat="43.229516" lon="0.913036">
        <ele>364.6</ele>
        <time>2020-02-20T17:26:43Z</time>
      </trkpt>
      <trkpt lat="43.229412" lon="0.913082">
        <ele>362.4</ele>
        <time>2020-02-20T17:26:46Z</time>
      </trkpt>
      <trkpt lat="43.229300" lon="0.913109">
        <ele>362.4</ele>
        <time>2020-02-20T17:26:50Z</time>
      </trkpt>
      <trkpt lat="43.229205" lon="0.913144">
        <ele>361.5</ele>
        <time>2020-02-20T17:29:37Z</time>
      </trkpt>
      <trkpt lat="43.229121" lon="0.913268">
        <ele>361.5</ele>
        <time>2020-02-20T17:29:42Z</time>
      </trkpt>
      <trkpt lat="43.229050" lon="0.913352">
        <ele>361.5</ele>
        <time>2020-02-20T17:29:44Z</time>
      </trkpt>
      <trkpt lat="43.228966" lon="0.913408">
        <ele>361.5</ele>
        <time>2020-02-20T17:29:46Z</time>
      </trkpt>
      <trkpt lat="43.228868" lon="0.913449">
        <ele>360.7</ele>
        <time>2020-02-20T17:29:48Z</time>
      </trkpt>
      <trkpt lat="43.228765" lon="0.913490">
        <ele>359.7</ele>
        <time>2020-02-20T17:29:50Z</time>
      </trkpt>
      <trkpt lat="43.228652" lon="0.913539">
        <ele>358.4</ele>
        <time>2020-02-20T17:29:52Z</time>
      </trkpt>
      <trkpt lat="43.228537" lon="0.913585">
        <ele>357.5</ele>
        <time>2020-02-20T17:29:54Z</time>
      </trkpt>
      <trkpt lat="43.228428" lon="0.913630">
        <ele>356.5</ele>
        <time>2020-02-20T17:29:56Z</time>
      </trkpt>
      <trkpt lat="43.228326" lon="0.913676">
        <ele>355.7</ele>
        <time>2020-02-20T17:29:58Z</time>
      </trkpt>
      <trkpt lat="43.228231" lon="0.913701">
        <ele>355.7</ele>
        <time>2020-02-20T17:30:00Z</time>
      </trkpt>
      <trkpt lat="43.228097" lon="0.913682">
        <ele>353.5</ele>
        <time>2020-02-20T17:30:03Z</time>
      </trkpt>
      <trkpt lat="43.227976" lon="0.913623">
        <ele>352.5</ele>
        <time>2020-02-20T17:30:06Z</time>
      </trkpt>
      <trkpt lat="43.227846" lon="0.913562">
        <ele>350.4</ele>
        <time>2020-02-20T17:30:09Z</time>
      </trkpt>
      <trkpt lat="43.227727" lon="0.913557">
        <ele>348.1</ele>
        <time>2020-02-20T17:30:12Z</time>
      </trkpt>
      <trkpt lat="43.227641" lon="0.913605">
        <ele>346.8</ele>
        <time>2020-02-20T17:30:14Z</time>
      </trkpt>
      <trkpt lat="43.227545" lon="0.913675">
        <ele>346.0</ele>
        <time>2020-02-20T17:30:17Z</time>
      </trkpt>
      <trkpt lat="43.227437" lon="0.913753">
        <ele>343.5</ele>
        <time>2020-02-20T17:30:21Z</time>
      </trkpt>
      <trkpt lat="43.227349" lon="0.913811">
        <ele>342.8</ele>
        <time>2020-02-20T17:30:24Z</time>
      </trkpt>
      <trkpt lat="43.227269" lon="0.913879">
        <ele>341.6</ele>
        <time>2020-02-20T17:30:27Z</time>
      </trkpt>
      <trkpt lat="43.227189" lon="0.913955">
        <ele>339.1</ele>
        <time>2020-02-20T17:30:52Z</time>
      </trkpt>
      <trkpt lat="43.227103" lon="0.914025">
        <ele>339.2</ele>
        <time>2020-02-20T17:30:59Z</time>
      </trkpt>
      <trkpt lat="43.226999" lon="0.914114">
        <ele>341.7</ele>
        <time>2020-02-20T17:31:08Z</time>
      </trkpt>
      <trkpt lat="43.226904" lon="0.914174">
        <ele>342.6</ele>
        <time>2020-02-20T17:31:19Z</time>
      </trkpt>
      <trkpt lat="43.226805" lon="0.914248">
        <ele>344.3</ele>
        <time>2020-02-20T17:31:27Z</time>
      </trkpt>
      <trkpt lat="43.226714" lon="0.914308">
        <ele>345.2</ele>
        <time>2020-02-20T17:31:35Z</time>
      </trkpt>
      <trkpt lat="43.226628" lon="0.914358">
        <ele>347.0</ele>
        <time>2020-02-20T17:31:44Z</time>
      </trkpt>
      <trkpt lat="43.226533" lon="0.914411">
        <ele>348.9</ele>
        <time>2020-02-20T17:31:55Z</time>
      </trkpt>
      <trkpt lat="43.226447" lon="0.914454">
        <ele>350.5</ele>
        <time>2020-02-20T17:32:04Z</time>
      </trkpt>
      <trkpt lat="43.226359" lon="0.914521">
        <ele>352.4</ele>
        <time>2020-02-20T17:32:15Z</time>
      </trkpt>
      <trkpt lat="43.226268" lon="0.914585">
        <ele>354.2</ele>
        <time>2020-02-20T17:32:26Z</time>
      </trkpt>
      <trkpt lat="43.226178" lon="0.914670">
        <ele>355.1</ele>
        <time>2020-02-20T17:32:37Z</time>
      </trkpt>
      <trkpt lat="43.226097" lon="0.914774">
        <ele>357.4</ele>
        <time>2020-02-20T17:32:47Z</time>
      </trkpt>
      <trkpt lat="43.226002" lon="0.914877">
        <ele>358.3</ele>
        <time>2020-02-20T17:32:58Z</time>
      </trkpt>
      <trkpt lat="43.225586" lon="0.915330">
        <ele>371.4</ele>
        <time>2020-02-20T17:33:08Z</time>
      </trkpt>
      <trkpt lat="43.225289" lon="0.915697">
        <ele>378.6</ele>
        <time>2020-02-20T17:33:18Z</time>
      </trkpt>
      <trkpt lat="43.224955" lon="0.916134">
        <ele>386.8</ele>
        <time>2020-02-20T17:33:29Z</time>
      </trkpt>
      <trkpt lat="43.224625" lon="0.916491">
        <ele>390.9</ele>
        <time>2020-02-20T17:33:40Z</time>
      </trkpt>
      <trkpt lat="43.224290" lon="0.916812">
        <ele>393.7</ele>
        <time>2020-02-20T17:38:04Z</time>
      </trkpt>
      <trkpt lat="43.224019" lon="0.916898">
        <ele>394.6</ele>
        <time>2020-02-20T17:39:14Z</time>
      </trkpt>
      <trkpt lat="43.223740" lon="0.916606">
        <ele>381.9</ele>
        <time>2020-02-20T17:39:28Z</time>
      </trkpt>
      <trkpt lat="43.223667" lon="0.916487">
        <ele>382.0</ele>
        <time>2020-02-20T17:39:33Z</time>
      </trkpt>
      <trkpt lat="43.223601" lon="0.916358">
        <ele>382.0</ele>
        <time>2020-02-20T17:39:38Z</time>
      </trkpt>
      <trkpt lat="43.223557" lon="0.916196">
        <ele>384.3</ele>
        <time>2020-02-20T17:39:42Z</time>
      </trkpt>
      <trkpt lat="43.223510" lon="0.916078">
        <ele>385.3</ele>
        <time>2020-02-20T17:39:46Z</time>
      </trkpt>
      <trkpt lat="43.223465" lon="0.915954">
        <ele>386.4</ele>
        <time>2020-02-20T17:39:50Z</time>
      </trkpt>
      <trkpt lat="43.223421" lon="0.915793">
        <ele>387.2</ele>
        <time>2020-02-20T17:39:54Z</time>
        <cmt>Cantomerly </cmt>
        <sym>Waypoint</sym>
      </trkpt>
      <trkpt lat="43.223385" lon="0.915653">
        <ele>387.2</ele>
        <time>2020-02-20T17:39:58Z</time>
      </trkpt>
      <trkpt lat="43.223342" lon="0.915498">
        <ele>387.2</ele>
        <time>2020-02-20T17:40:02Z</time>
      </trkpt>
      <trkpt lat="43.223290" lon="0.915344">
        <ele>388.1</ele>
        <time>2020-02-20T17:40:06Z</time>
      </trkpt>
      <trkpt lat="43.223220" lon="0.915197">
        <ele>388.1</ele>
        <time>2020-02-20T17:40:10Z</time>
      </trkpt>
      <trkpt lat="43.223164" lon="0.915086">
        <ele>388.1</ele>
        <time>2020-02-20T17:40:13Z</time>
      </trkpt>
      <trkpt lat="43.223086" lon="0.914959">
        <ele>388.1</ele>
        <time>2020-02-20T17:40:17Z</time>
      </trkpt>
      <trkpt lat="43.222999" lon="0.914868">
        <ele>388.1</ele>
        <time>2020-02-20T17:40:21Z</time>
      </trkpt>
      <trkpt lat="43.222910" lon="0.914779">
        <ele>388.9</ele>
        <time>2020-02-20T17:40:25Z</time>
      </trkpt>
      <trkpt lat="43.222819" lon="0.914685">
        <ele>388.9</ele>
        <time>2020-02-20T17:40:29Z</time>
      </trkpt>
      <trkpt lat="43.222732" lon="0.914617">
        <ele>388.9</ele>
        <time>2020-02-20T17:40:33Z</time>
      </trkpt>
      <trkpt lat="43.222635" lon="0.914543">
        <ele>389.7</ele>
        <time>2020-02-20T17:40:37Z</time>
      </trkpt>
      <trkpt lat="43.222543" lon="0.914485">
        <ele>390.5</ele>
        <time>2020-02-20T17:40:41Z</time>
      </trkpt>
      <trkpt lat="43.222447" lon="0.914434">
        <ele>390.6</ele>
        <time>2020-02-20T17:40:45Z</time>
      </trkpt>
      <trkpt lat="43.222345" lon="0.914384">
        <ele>391.3</ele>
        <time>2020-02-20T17:40:49Z</time>
      </trkpt>
      <trkpt lat="43.222244" lon="0.914360">
        <ele>391.4</ele>
        <time>2020-02-20T17:40:53Z</time>
      </trkpt>
      <trkpt lat="43.222146" lon="0.914347">
        <ele>391.4</ele>
        <time>2020-02-20T17:40:57Z</time>
      </trkpt>
      <trkpt lat="43.222053" lon="0.914327">
        <ele>391.4</ele>
        <time>2020-02-20T17:41:01Z</time>
      </trkpt>
      <trkpt lat="43.221958" lon="0.914299">
        <ele>392.2</ele>
        <time>2020-02-20T17:41:05Z</time>
      </trkpt>
      <trkpt lat="43.221857" lon="0.914271">
        <ele>393.3</ele>
        <time>2020-02-20T17:41:09Z</time>
      </trkpt>
      <trkpt lat="43.221759" lon="0.914244">
        <ele>394.4</ele>
        <time>2020-02-20T17:41:14Z</time>
      </trkpt>
      <trkpt lat="43.221663" lon="0.914209">
        <ele>394.4</ele>
        <time>2020-02-20T17:41:18Z</time>
      </trkpt>
      <trkpt lat="43.221557" lon="0.914186">
        <ele>394.4</ele>
        <time>2020-02-20T17:41:22Z</time>
      </trkpt>
      <trkpt lat="43.221444" lon="0.914155">
        <ele>394.4</ele>
        <time>2020-02-20T17:41:26Z</time>
      </trkpt>
      <trkpt lat="43.221323" lon="0.914132">
        <ele>394.4</ele>
        <time>2020-02-20T17:41:30Z</time>
      </trkpt>
      <trkpt lat="43.221200" lon="0.914095">
        <ele>394.4</ele>
        <time>2020-02-20T17:41:34Z</time>
      </trkpt>
      <trkpt lat="43.221108" lon="0.914066">
        <ele>394.4</ele>
        <time>2020-02-20T17:41:37Z</time>
      </trkpt>
      <trkpt lat="43.220996" lon="0.914042">
        <ele>394.4</ele>
        <time>2020-02-20T17:41:41Z</time>
      </trkpt>
      <trkpt lat="43.220858" lon="0.914044">
        <ele>394.4</ele>
        <time>2020-02-20T17:41:45Z</time>
      </trkpt>
      <trkpt lat="43.220740" lon="0.914039">
        <ele>394.4</ele>
        <time>2020-02-20T17:41:48Z</time>
      </trkpt>
      <trkpt lat="43.220632" lon="0.914020">
        <ele>394.4</ele>
        <time>2020-02-20T17:41:51Z</time>
      </trkpt>
      <trkpt lat="43.220524" lon="0.913973">
        <ele>394.4</ele>
        <time>2020-02-20T17:41:54Z</time>
      </trkpt>
      <trkpt lat="43.220419" lon="0.913915">
        <ele>394.4</ele>
        <time>2020-02-20T17:41:57Z</time>
      </trkpt>
      <trkpt lat="43.220329" lon="0.913849">
        <ele>394.5</ele>
        <time>2020-02-20T17:42:00Z</time>
      </trkpt>
      <trkpt lat="43.220223" lon="0.913766">
        <ele>395.3</ele>
        <time>2020-02-20T17:42:04Z</time>
      </trkpt>
      <trkpt lat="43.220124" lon="0.913681">
        <ele>396.1</ele>
        <time>2020-02-20T17:42:08Z</time>
      </trkpt>
      <trkpt lat="43.220028" lon="0.913595">
        <ele>396.1</ele>
        <time>2020-02-20T17:42:12Z</time>
      </trkpt>
      <trkpt lat="43.219947" lon="0.913521">
        <ele>396.9</ele>
        <time>2020-02-20T17:42:16Z</time>
      </trkpt>
      <trkpt lat="43.219854" lon="0.913457">
        <ele>397.9</ele>
        <time>2020-02-20T17:42:21Z</time>
      </trkpt>
      <trkpt lat="43.219765" lon="0.913385">
        <ele>398.5</ele>
        <time>2020-02-20T17:42:26Z</time>
      </trkpt>
      <trkpt lat="43.219678" lon="0.913297">
        <ele>398.5</ele>
        <time>2020-02-20T17:42:31Z</time>
      </trkpt>
      <trkpt lat="43.219571" lon="0.913216">
        <ele>399.5</ele>
        <time>2020-02-20T17:42:38Z</time>
      </trkpt>
      <trkpt lat="43.219471" lon="0.913140">
        <ele>400.3</ele>
        <time>2020-02-20T17:42:44Z</time>
      </trkpt>
      <trkpt lat="43.219373" lon="0.913030">
        <ele>401.8</ele>
        <time>2020-02-20T17:42:50Z</time>
      </trkpt>
      <trkpt lat="43.219281" lon="0.912903">
        <ele>402.8</ele>
        <time>2020-02-20T17:42:57Z</time>
      </trkpt>
      <trkpt lat="43.219175" lon="0.912799">
        <ele>404.7</ele>
        <time>2020-02-20T17:43:04Z</time>
      </trkpt>
      <trkpt lat="43.219085" lon="0.912711">
        <ele>405.6</ele>
        <time>2020-02-20T17:43:10Z</time>
      </trkpt>
      <trkpt lat="43.218984" lon="0.912625">
        <ele>406.5</ele>
        <time>2020-02-20T17:43:15Z</time>
      </trkpt>
      <trkpt lat="43.218895" lon="0.912535">
        <ele>407.1</ele>
        <time>2020-02-20T17:43:20Z</time>
      </trkpt>
      <trkpt lat="43.218796" lon="0.912434">
        <ele>408.1</ele>
        <time>2020-02-20T17:43:26Z</time>
      </trkpt>
      <trkpt lat="43.218681" lon="0.912332">
        <ele>410.0</ele>
        <time>2020-02-20T17:43:33Z</time>
      </trkpt>
      <trkpt lat="43.218569" lon="0.912224">
        <ele>409.9</ele>
        <time>2020-02-20T17:43:39Z</time>
      </trkpt>
      <trkpt lat="43.218482" lon="0.912150">
        <ele>410.8</ele>
        <time>2020-02-20T17:43:44Z</time>
      </trkpt>
      <trkpt lat="43.218391" lon="0.912051">
        <ele>411.6</ele>
        <time>2020-02-20T17:43:50Z</time>
      </trkpt>
      <trkpt lat="43.218294" lon="0.911973">
        <ele>412.4</ele>
        <time>2020-02-20T17:43:56Z</time>
      </trkpt>
      <trkpt lat="43.218176" lon="0.911871">
        <ele>413.3</ele>
        <time>2020-02-20T17:44:02Z</time>
      </trkpt>
      <trkpt lat="43.218082" lon="0.911794">
        <ele>414.3</ele>
        <time>2020-02-20T17:44:07Z</time>
      </trkpt>
      <trkpt lat="43.217980" lon="0.911699">
        <ele>415.0</ele>
        <time>2020-02-20T17:44:12Z</time>
      </trkpt>
      <trkpt lat="43.217880" lon="0.911611">
        <ele>414.9</ele>
        <time>2020-02-20T17:44:17Z</time>
      </trkpt>
      <trkpt lat="43.217787" lon="0.911535">
        <ele>415.7</ele>
        <time>2020-02-20T17:44:22Z</time>
      </trkpt>
      <trkpt lat="43.217695" lon="0.911451">
        <ele>416.6</ele>
        <time>2020-02-20T17:44:27Z</time>
      </trkpt>
      <trkpt lat="43.217601" lon="0.911370">
        <ele>417.6</ele>
        <time>2020-02-20T17:44:32Z</time>
      </trkpt>
      <trkpt lat="43.217517" lon="0.911278">
        <ele>418.7</ele>
        <time>2020-02-20T17:44:37Z</time>
      </trkpt>
      <trkpt lat="43.217434" lon="0.911195">
        <ele>419.6</ele>
        <time>2020-02-20T17:44:42Z</time>
      </trkpt>
      <trkpt lat="43.217347" lon="0.911092">
        <ele>419.6</ele>
        <time>2020-02-20T17:44:47Z</time>
      </trkpt>
      <trkpt lat="43.217267" lon="0.911000">
        <ele>420.5</ele>
        <time>2020-02-20T17:44:52Z</time>
      </trkpt>
      <trkpt lat="43.217194" lon="0.910905">
        <ele>421.5</ele>
        <time>2020-02-20T17:44:57Z</time>
      </trkpt>
      <trkpt lat="43.217138" lon="0.910785">
        <ele>422.2</ele>
        <time>2020-02-20T17:45:02Z</time>
      </trkpt>
      <trkpt lat="43.217082" lon="0.910669">
        <ele>422.2</ele>
        <time>2020-02-20T17:45:07Z</time>
      </trkpt>
      <trkpt lat="43.217014" lon="0.910563">
        <ele>423.0</ele>
        <time>2020-02-20T17:45:12Z</time>
      </trkpt>
      <trkpt lat="43.216953" lon="0.910452">
        <ele>423.0</ele>
        <time>2020-02-20T17:45:17Z</time>
      </trkpt>
      <trkpt lat="43.216891" lon="0.910331">
        <ele>423.0</ele>
        <time>2020-02-20T17:45:23Z</time>
      </trkpt>
      <trkpt lat="43.216823" lon="0.910191">
        <ele>423.9</ele>
        <time>2020-02-20T17:45:51Z</time>
      </trkpt>
      <trkpt lat="43.216754" lon="0.910061">
        <ele>423.9</ele>
        <time>2020-02-20T17:45:55Z</time>
      </trkpt>
      <trkpt lat="43.216660" lon="0.909950">
        <ele>423.9</ele>
        <time>2020-02-20T17:45:59Z</time>
      </trkpt>
      <trkpt lat="43.216577" lon="0.909859">
        <ele>423.9</ele>
        <time>2020-02-20T17:46:04Z</time>
      </trkpt>
      <trkpt lat="43.216482" lon="0.909761">
        <ele>423.9</ele>
        <time>2020-02-20T17:46:09Z</time>
      </trkpt>
      <trkpt lat="43.216375" lon="0.909644">
        <ele>424.0</ele>
        <time>2020-02-20T17:46:14Z</time>
      </trkpt>
      <trkpt lat="43.216288" lon="0.909541">
        <ele>424.0</ele>
        <time>2020-02-20T17:46:19Z</time>
      </trkpt>
      <trkpt lat="43.216177" lon="0.909449">
        <ele>425.2</ele>
        <time>2020-02-20T17:46:24Z</time>
      </trkpt>
      <trkpt lat="43.216075" lon="0.909369">
        <ele>426.2</ele>
        <time>2020-02-20T17:46:30Z</time>
      </trkpt>
      <trkpt lat="43.215951" lon="0.909316">
        <ele>427.1</ele>
        <time>2020-02-20T17:46:36Z</time>
      </trkpt>
      <trkpt lat="43.215843" lon="0.909284">
        <ele>426.9</ele>
        <time>2020-02-20T17:46:41Z</time>
      </trkpt>
      <trkpt lat="43.215719" lon="0.909242">
        <ele>427.0</ele>
        <time>2020-02-20T17:46:46Z</time>
      </trkpt>
      <trkpt lat="43.215599" lon="0.909218">
        <ele>427.8</ele>
        <time>2020-02-20T17:46:51Z</time>
      </trkpt>
      <trkpt lat="43.215472" lon="0.909186">
        <ele>427.7</ele>
        <time>2020-02-20T17:46:56Z</time>
      </trkpt>
      <trkpt lat="43.215338" lon="0.909174">
        <ele>429.4</ele>
        <time>2020-02-20T17:47:02Z</time>
      </trkpt>
      <trkpt lat="43.215191" lon="0.909156">
        <ele>430.3</ele>
        <time>2020-02-20T17:47:08Z</time>
      </trkpt>
      <trkpt lat="43.215031" lon="0.909122">
        <ele>431.0</ele>
        <time>2020-02-20T17:47:21Z</time>
      </trkpt>
      <trkpt lat="43.214911" lon="0.909085">
        <ele>431.9</ele>
        <time>2020-02-20T17:47:33Z</time>
      </trkpt>
      <trkpt lat="43.214784" lon="0.909059">
        <ele>433.5</ele>
        <time>2020-02-20T17:47:45Z</time>
      </trkpt>
      <trkpt lat="43.214657" lon="0.909127">
        <ele>435.1</ele>
        <time>2020-02-20T17:47:57Z</time>
      </trkpt>
      <trkpt lat="43.214540" lon="0.909182">
        <ele>435.9</ele>
        <time>2020-02-20T17:48:07Z</time>
      </trkpt>
      <trkpt lat="43.214430" lon="0.909233">
        <ele>437.5</ele>
        <time>2020-02-20T17:48:18Z</time>
      </trkpt>
      <trkpt lat="43.214326" lon="0.909292">
        <ele>439.9</ele>
        <time>2020-02-20T17:48:33Z</time>
      </trkpt>
      <trkpt lat="43.214193" lon="0.909332">
        <ele>443.5</ele>
        <time>2020-02-20T17:48:49Z</time>
      </trkpt>
      <trkpt lat="43.214070" lon="0.909348">
        <ele>445.1</ele>
        <time>2020-02-20T17:49:03Z</time>
      </trkpt>
      <trkpt lat="43.213939" lon="0.909381">
        <ele>445.8</ele>
        <time>2020-02-20T17:49:15Z</time>
      </trkpt>
      <trkpt lat="43.213802" lon="0.909421">
        <ele>445.7</ele>
        <time>2020-02-20T17:49:28Z</time>
      </trkpt>
      <trkpt lat="43.213647" lon="0.909436">
        <ele>446.5</ele>
        <time>2020-02-20T17:49:40Z</time>
      </trkpt>
      <trkpt lat="43.213540" lon="0.909541">
        <ele>447.2</ele>
        <time>2020-02-20T17:49:51Z</time>
      </trkpt>
      <trkpt lat="43.213440" lon="0.909673">
        <ele>447.6</ele>
        <time>2020-02-20T17:50:12Z</time>
      </trkpt>
      <trkpt lat="43.213382" lon="0.909813">
        <ele>447.5</ele>
        <time>2020-02-20T17:50:19Z</time>
      </trkpt>
      <trkpt lat="43.213290" lon="0.909962">
        <ele>447.5</ele>
        <time>2020-02-20T17:50:25Z</time>
      </trkpt>
      <trkpt lat="43.213215" lon="0.910112">
        <ele>447.4</ele>
        <time>2020-02-20T17:50:30Z</time>
      </trkpt>
      <trkpt lat="43.213146" lon="0.910252">
        <ele>447.4</ele>
        <time>2020-02-20T17:50:34Z</time>
      </trkpt>
      <trkpt lat="43.213072" lon="0.910388">
        <ele>445.0</ele>
        <time>2020-02-20T17:50:39Z</time>
      </trkpt>
      <trkpt lat="43.212927" lon="0.910452">
        <ele>444.9</ele>
        <time>2020-02-20T17:50:44Z</time>
      </trkpt>
      <trkpt lat="43.212814" lon="0.910463">
        <ele>444.9</ele>
        <time>2020-02-20T17:50:48Z</time>
      </trkpt>
      <trkpt lat="43.212691" lon="0.910501">
        <ele>444.8</ele>
        <time>2020-02-20T17:50:52Z</time>
      </trkpt>
      <trkpt lat="43.212563" lon="0.910513">
        <ele>444.8</ele>
        <time>2020-02-20T17:50:57Z</time>
      </trkpt>
      <trkpt lat="43.212435" lon="0.910506">
        <ele>444.6</ele>
        <time>2020-02-20T17:51:04Z</time>
      </trkpt>
      <trkpt lat="43.212293" lon="0.910543">
        <ele>444.4</ele>
        <time>2020-02-20T17:51:15Z</time>
      </trkpt>
      <trkpt lat="43.212176" lon="0.910529">
        <ele>447.2</ele>
        <time>2020-02-20T17:51:28Z</time>
      </trkpt>
      <trkpt lat="43.212076" lon="0.910535">
        <ele>448.7</ele>
        <time>2020-02-20T17:51:39Z</time>
      </trkpt>
      <trkpt lat="43.211978" lon="0.910560">
        <ele>449.2</ele>
        <time>2020-02-20T17:51:50Z</time>
      </trkpt>
      <trkpt lat="43.211857" lon="0.910600">
        <ele>452.3</ele>
        <time>2020-02-20T17:52:06Z</time>
      </trkpt>
      <trkpt lat="43.211733" lon="0.910701">
        <ele>453.4</ele>
        <time>2020-02-20T17:52:22Z</time>
      </trkpt>
      <trkpt lat="43.211622" lon="0.910836">
        <ele>455.5</ele>
        <time>2020-02-20T17:52:41Z</time>
      </trkpt>
      <trkpt lat="43.211532" lon="0.910983">
        <ele>458.3</ele>
        <time>2020-02-20T17:52:58Z</time>
      </trkpt>
      <trkpt lat="43.211414" lon="0.911122">
        <ele>460.6</ele>
        <time>2020-02-20T17:53:15Z</time>
      </trkpt>
      <trkpt lat="43.211312" lon="0.911117">
        <ele>461.8</ele>
        <time>2020-02-20T17:53:29Z</time>
        <cmt>Cap del Bosc</cmt>
        <sym>Waypoint</sym>
      </trkpt>
      <trkpt lat="43.211218" lon="0.911054">
        <ele>463.1</ele>
        <time>2020-02-20T17:53:42Z</time>
      </trkpt>
      <trkpt lat="43.211191" lon="0.911032">
        <ele>464.3</ele>
        <time>2020-02-20T17:53:59Z</time>
      </trkpt>
      <trkpt lat="43.211163" lon="0.911030">
        <ele>464.9</ele>
        <time>2020-02-20T17:54:57Z</time>
      </trkpt>
      <trkpt lat="43.211124" lon="0.910915">
        <ele>464.9</ele>
        <time>2020-02-20T17:55:01Z</time>
      </trkpt>
      <trkpt lat="43.211074" lon="0.910814">
        <ele>462.6</ele>
        <time>2020-02-20T17:55:05Z</time>
      </trkpt>
      <trkpt lat="43.210995" lon="0.910697">
        <ele>462.7</ele>
        <time>2020-02-20T17:55:09Z</time>
      </trkpt>
      <trkpt lat="43.210907" lon="0.910601">
        <ele>460.8</ele>
        <time>2020-02-20T17:55:14Z</time>
      </trkpt>
      <trkpt lat="43.210827" lon="0.910539">
        <ele>458.8</ele>
        <time>2020-02-20T17:55:48Z</time>
      </trkpt>
      <trkpt lat="43.210725" lon="0.910453">
        <ele>458.9</ele>
        <time>2020-02-20T17:55:58Z</time>
      </trkpt>
      <trkpt lat="43.210601" lon="0.910378">
        <ele>458.9</ele>
        <time>2020-02-20T17:56:02Z</time>
      </trkpt>
      <trkpt lat="43.210511" lon="0.910316">
        <ele>456.3</ele>
        <time>2020-02-20T17:56:05Z</time>
      </trkpt>
      <trkpt lat="43.210387" lon="0.910274">
        <ele>454.2</ele>
        <time>2020-02-20T17:56:09Z</time>
      </trkpt>
      <trkpt lat="43.210271" lon="0.910259">
        <ele>452.4</ele>
        <time>2020-02-20T17:56:14Z</time>
      </trkpt>
      <trkpt lat="43.210161" lon="0.910206">
        <ele>449.5</ele>
        <time>2020-02-20T17:56:19Z</time>
      </trkpt>
      <trkpt lat="43.210062" lon="0.910154">
        <ele>447.1</ele>
        <time>2020-02-20T17:56:31Z</time>
      </trkpt>
      <trkpt lat="43.210011" lon="0.910279">
        <ele>445.6</ele>
        <time>2020-02-20T17:56:40Z</time>
      </trkpt>
      <trkpt lat="43.209941" lon="0.910402">
        <ele>443.0</ele>
        <time>2020-02-20T17:56:51Z</time>
      </trkpt>
      <trkpt lat="43.209846" lon="0.910507">
        <ele>439.3</ele>
        <time>2020-02-20T17:57:04Z</time>
      </trkpt>
      <trkpt lat="43.209743" lon="0.910618">
        <ele>438.5</ele>
        <time>2020-02-20T17:57:11Z</time>
      </trkpt>
      <trkpt lat="43.209655" lon="0.910719">
        <ele>437.7</ele>
        <time>2020-02-20T17:57:15Z</time>
      </trkpt>
      <trkpt lat="43.209560" lon="0.910850">
        <ele>435.6</ele>
        <time>2020-02-20T17:57:21Z</time>
      </trkpt>
      <trkpt lat="43.209465" lon="0.910918">
        <ele>434.6</ele>
        <time>2020-02-20T17:57:27Z</time>
      </trkpt>
      <trkpt lat="43.209440" lon="0.910916">
        <ele>435.6</ele>
        <time>2020-02-20T18:01:29Z</time>
      </trkpt>
      <trkpt lat="43.209339" lon="0.910881">
        <ele>433.5</ele>
        <time>2020-02-20T18:01:33Z</time>
      </trkpt>
      <trkpt lat="43.209235" lon="0.910864">
        <ele>431.5</ele>
        <time>2020-02-20T18:01:37Z</time>
      </trkpt>
      <trkpt lat="43.209117" lon="0.910834">
        <ele>429.8</ele>
        <time>2020-02-20T18:01:42Z</time>
      </trkpt>
      <trkpt lat="43.209018" lon="0.910792">
        <ele>427.9</ele>
        <time>2020-02-20T18:01:46Z</time>
      </trkpt>
      <trkpt lat="43.208901" lon="0.910781">
        <ele>426.2</ele>
        <time>2020-02-20T18:01:51Z</time>
      </trkpt>
      <trkpt lat="43.208793" lon="0.910776">
        <ele>424.7</ele>
        <time>2020-02-20T18:01:56Z</time>
      </trkpt>
      <trkpt lat="43.208696" lon="0.910772">
        <ele>422.6</ele>
        <time>2020-02-20T18:02:00Z</time>
      </trkpt>
      <trkpt lat="43.208605" lon="0.910744">
        <ele>421.0</ele>
        <time>2020-02-20T18:02:09Z</time>
      </trkpt>
      <trkpt lat="43.208504" lon="0.910702">
        <ele>417.8</ele>
        <time>2020-02-20T18:02:20Z</time>
      </trkpt>
      <trkpt lat="43.208405" lon="0.910670">
        <ele>416.0</ele>
        <time>2020-02-20T18:02:28Z</time>
      </trkpt>
      <trkpt lat="43.208280" lon="0.910618">
        <ele>414.6</ele>
        <time>2020-02-20T18:02:38Z</time>
      </trkpt>
      <trkpt lat="43.208168" lon="0.910571">
        <ele>413.7</ele>
        <time>2020-02-20T18:02:41Z</time>
      </trkpt>
      <trkpt lat="43.208059" lon="0.910570">
        <ele>412.7</ele>
        <time>2020-02-20T18:02:44Z</time>
      </trkpt>
      <trkpt lat="43.207957" lon="0.910562">
        <ele>411.6</ele>
        <time>2020-02-20T18:02:47Z</time>
      </trkpt>
      <trkpt lat="43.207851" lon="0.910543">
        <ele>410.7</ele>
        <time>2020-02-20T18:02:52Z</time>
      </trkpt>
      <trkpt lat="43.207740" lon="0.910536">
        <ele>407.3</ele>
        <time>2020-02-20T18:03:06Z</time>
      </trkpt>
      <trkpt lat="43.207611" lon="0.910533">
        <ele>405.7</ele>
        <time>2020-02-20T18:03:18Z</time>
      </trkpt>
      <trkpt lat="43.207485" lon="0.910505">
        <ele>403.8</ele>
        <time>2020-02-20T18:03:24Z</time>
      </trkpt>
      <trkpt lat="43.207360" lon="0.910501">
        <ele>401.6</ele>
        <time>2020-02-20T18:03:28Z</time>
      </trkpt>
      <trkpt lat="43.207263" lon="0.910492">
        <ele>399.4</ele>
        <time>2020-02-20T18:03:32Z</time>
      </trkpt>
      <trkpt lat="43.207159" lon="0.910498">
        <ele>397.0</ele>
        <time>2020-02-20T18:03:48Z</time>
      </trkpt>
      <trkpt lat="43.207164" lon="0.910377">
        <ele>395.2</ele>
        <time>2020-02-20T18:03:53Z</time>
      </trkpt>
      <trkpt lat="43.207210" lon="0.910249">
        <ele>394.4</ele>
        <time>2020-02-20T18:03:59Z</time>
      </trkpt>
      <trkpt lat="43.207258" lon="0.910099">
        <ele>394.4</ele>
        <time>2020-02-20T18:04:04Z</time>
      </trkpt>
      <trkpt lat="43.207287" lon="0.909908">
        <ele>393.6</ele>
        <time>2020-02-20T18:04:11Z</time>
      </trkpt>
      <trkpt lat="43.207361" lon="0.909783">
        <ele>393.7</ele>
        <time>2020-02-20T18:04:17Z</time>
      </trkpt>
      <trkpt lat="43.207402" lon="0.909616">
        <ele>392.6</ele>
        <time>2020-02-20T18:04:22Z</time>
      </trkpt>
      <trkpt lat="43.207440" lon="0.909481">
        <ele>391.7</ele>
        <time>2020-02-20T18:04:32Z</time>
      </trkpt>
      <trkpt lat="43.207518" lon="0.909319">
        <ele>391.8</ele>
        <time>2020-02-20T18:04:48Z</time>
      </trkpt>
      <trkpt lat="43.207568" lon="0.909187">
        <ele>391.8</ele>
        <time>2020-02-20T18:05:05Z</time>
      </trkpt>
      <trkpt lat="43.207650" lon="0.909051">
        <ele>391.8</ele>
        <time>2020-02-20T18:05:17Z</time>
      </trkpt>
      <trkpt lat="43.207742" lon="0.908964">
        <ele>391.9</ele>
        <time>2020-02-20T18:05:27Z</time>
      </trkpt>
      <trkpt lat="43.207849" lon="0.908874">
        <ele>394.2</ele>
        <time>2020-02-20T18:05:39Z</time>
      </trkpt>
      <trkpt lat="43.207926" lon="0.908770">
        <ele>394.2</ele>
        <time>2020-02-20T18:05:50Z</time>
      </trkpt>
      <trkpt lat="43.207917" lon="0.908634">
        <ele>394.2</ele>
        <time>2020-02-20T18:06:04Z</time>
      </trkpt>
      <trkpt lat="43.207874" lon="0.908496">
        <ele>394.2</ele>
        <time>2020-02-20T18:06:19Z</time>
      </trkpt>
      <trkpt lat="43.207799" lon="0.908406">
        <ele>394.2</ele>
        <time>2020-02-20T18:06:31Z</time>
      </trkpt>
      <trkpt lat="43.207786" lon="0.908398">
        <ele>394.4</ele>
        <time>2020-02-20T18:07:08Z</time>
      </trkpt>
      <trkpt lat="43.207795" lon="0.908321">
        <ele>394.6</ele>
        <time>2020-02-20T18:07:28Z</time>
      </trkpt>
      <trkpt lat="43.207772" lon="0.908152">
        <ele>392.3</ele>
        <time>2020-02-20T18:07:43Z</time>
      </trkpt>
      <trkpt lat="43.207771" lon="0.908030">
        <ele>392.5</ele>
        <time>2020-02-20T18:08:07Z</time>
      </trkpt>
      <trkpt lat="43.207817" lon="0.907881">
        <ele>392.6</ele>
        <time>2020-02-20T18:08:18Z</time>
      </trkpt>
      <trkpt lat="43.207846" lon="0.907720">
        <ele>395.2</ele>
        <time>2020-02-20T18:08:28Z</time>
      </trkpt>
      <trkpt lat="43.207905" lon="0.907592">
        <ele>397.0</ele>
        <time>2020-02-20T18:08:38Z</time>
      </trkpt>
      <trkpt lat="43.207971" lon="0.907449">
        <ele>399.9</ele>
        <time>2020-02-20T18:08:50Z</time>
      </trkpt>
      <trkpt lat="43.208013" lon="0.907317">
        <ele>401.8</ele>
        <time>2020-02-20T18:09:00Z</time>
      </trkpt>
      <trkpt lat="43.208028" lon="0.907174">
        <ele>402.8</ele>
        <time>2020-02-20T18:09:14Z</time>
      </trkpt>
      <trkpt lat="43.208050" lon="0.907036">
        <ele>403.6</ele>
        <time>2020-02-20T18:09:23Z</time>
      </trkpt>
      <trkpt lat="43.208091" lon="0.906887">
        <ele>403.7</ele>
        <time>2020-02-20T18:09:34Z</time>
      </trkpt>
      <trkpt lat="43.208122" lon="0.906751">
        <ele>403.8</ele>
        <time>2020-02-20T18:09:40Z</time>
      </trkpt>
      <trkpt lat="43.208163" lon="0.906600">
        <ele>403.8</ele>
        <time>2020-02-20T18:09:49Z</time>
      </trkpt>
      <trkpt lat="43.208189" lon="0.906432">
        <ele>403.9</ele>
        <time>2020-02-20T18:10:02Z</time>
      </trkpt>
      <trkpt lat="43.208244" lon="0.906209">
        <ele>404.0</ele>
        <time>2020-02-20T18:10:17Z</time>
      </trkpt>
      <trkpt lat="43.208302" lon="0.906010">
        <ele>404.1</ele>
        <time>2020-02-20T18:10:28Z</time>
      </trkpt>
      <trkpt lat="43.208370" lon="0.905816">
        <ele>401.8</ele>
        <time>2020-02-20T18:10:41Z</time>
      </trkpt>
      <trkpt lat="43.208422" lon="0.905654">
        <ele>401.0</ele>
        <time>2020-02-20T18:10:51Z</time>
      </trkpt>
      <trkpt lat="43.208492" lon="0.905526">
        <ele>401.1</ele>
        <time>2020-02-20T18:11:02Z</time>
      </trkpt>
      <trkpt lat="43.208521" lon="0.905294">
        <ele>400.2</ele>
        <time>2020-02-20T18:11:15Z</time>
      </trkpt>
      <trkpt lat="43.208472" lon="0.905159">
        <ele>398.3</ele>
        <time>2020-02-20T18:11:20Z</time>
      </trkpt>
      <trkpt lat="43.208357" lon="0.905107">
        <ele>398.4</ele>
        <time>2020-02-20T18:11:26Z</time>
      </trkpt>
      <trkpt lat="43.208232" lon="0.905030">
        <ele>397.6</ele>
        <time>2020-02-20T18:11:31Z</time>
      </trkpt>
      <trkpt lat="43.208130" lon="0.904971">
        <ele>397.7</ele>
        <time>2020-02-20T18:11:35Z</time>
      </trkpt>
      <trkpt lat="43.208015" lon="0.904947">
        <ele>397.7</ele>
        <time>2020-02-20T18:11:40Z</time>
      </trkpt>
      <trkpt lat="43.207909" lon="0.904914">
        <ele>397.0</ele>
        <time>2020-02-20T18:11:46Z</time>
      </trkpt>
      <trkpt lat="43.207929" lon="0.904824">
        <ele>396.2</ele>
        <time>2020-02-20T18:11:51Z</time>
      </trkpt>
      <trkpt lat="43.207934" lon="0.904745">
        <ele>395.1</ele>
        <time>2020-02-20T18:12:24Z</time>
      </trkpt>
      <trkpt lat="43.207945" lon="0.904640">
        <ele>395.2</ele>
        <time>2020-02-20T18:12:50Z</time>
      </trkpt>
      <trkpt lat="43.208033" lon="0.904482">
        <ele>395.3</ele>
        <time>2020-02-20T18:12:54Z</time>
      </trkpt>
      <trkpt lat="43.208086" lon="0.904385">
        <ele>395.3</ele>
        <time>2020-02-20T18:12:56Z</time>
      </trkpt>
      <trkpt lat="43.208167" lon="0.904234">
        <ele>395.3</ele>
        <time>2020-02-20T18:12:59Z</time>
      </trkpt>
      <trkpt lat="43.208212" lon="0.904132">
        <ele>395.3</ele>
        <time>2020-02-20T18:13:01Z</time>
      </trkpt>
      <trkpt lat="43.208296" lon="0.903990">
        <ele>395.4</ele>
        <time>2020-02-20T18:13:04Z</time>
      </trkpt>
      <trkpt lat="43.208375" lon="0.903739">
        <ele>425.9</ele>
        <time>2020-02-20T18:13:10Z</time>
      </trkpt>
      <trkpt lat="43.208226" lon="0.903593">
        <ele>422.4</ele>
        <time>2020-02-20T18:13:14Z</time>
      </trkpt>
      <trkpt lat="43.208022" lon="0.903347">
        <ele>417.3</ele>
        <time>2020-02-20T18:13:19Z</time>
      </trkpt>
      <trkpt lat="43.207854" lon="0.903240">
        <ele>414.1</ele>
        <time>2020-02-20T18:13:23Z</time>
      </trkpt>
      <trkpt lat="43.207728" lon="0.903115">
        <ele>411.9</ele>
        <time>2020-02-20T18:13:26Z</time>
      </trkpt>
      <trkpt lat="43.207535" lon="0.902845">
        <ele>408.8</ele>
        <time>2020-02-20T18:13:31Z</time>
      </trkpt>
      <trkpt lat="43.207371" lon="0.902777">
        <ele>408.1</ele>
        <time>2020-02-20T18:13:34Z</time>
      </trkpt>
      <trkpt lat="43.207271" lon="0.902686">
        <ele>408.0</ele>
        <time>2020-02-20T18:13:37Z</time>
      </trkpt>
      <trkpt lat="43.207288" lon="0.902462">
        <ele>408.1</ele>
        <time>2020-02-20T18:13:40Z</time>
      </trkpt>
      <trkpt lat="43.207448" lon="0.902293">
        <ele>408.9</ele>
        <time>2020-02-20T18:13:44Z</time>
      </trkpt>
      <trkpt lat="43.207690" lon="0.901996">
        <ele>410.9</ele>
        <time>2020-02-20T18:13:50Z</time>
      </trkpt>
      <trkpt lat="43.207880" lon="0.901877">
        <ele>411.5</ele>
        <time>2020-02-20T18:13:54Z</time>
      </trkpt>
      <trkpt lat="43.208067" lon="0.901562">
        <ele>411.4</ele>
        <time>2020-02-20T18:14:00Z</time>
      </trkpt>
      <trkpt lat="43.208210" lon="0.901402">
        <ele>411.6</ele>
        <time>2020-02-20T18:14:03Z</time>
      </trkpt>
      <trkpt lat="43.208363" lon="0.901196">
        <ele>412.4</ele>
        <time>2020-02-20T18:14:07Z</time>
      </trkpt>
      <trkpt lat="43.208593" lon="0.900941">
        <ele>415.8</ele>
        <time>2020-02-20T18:14:13Z</time>
      </trkpt>
      <trkpt lat="43.208746" lon="0.900776">
        <ele>418.4</ele>
        <time>2020-02-20T18:14:17Z</time>
      </trkpt>
      <trkpt lat="43.208896" lon="0.900557">
        <ele>421.7</ele>
        <time>2020-02-20T18:14:21Z</time>
      </trkpt>
      <trkpt lat="43.209062" lon="0.900260">
        <ele>425.8</ele>
        <time>2020-02-20T18:14:26Z</time>
      </trkpt>
      <trkpt lat="43.209165" lon="0.900091">
        <ele>428.3</ele>
        <time>2020-02-20T18:14:30Z</time>
      </trkpt>
      <trkpt lat="43.209149" lon="0.899874">
        <ele>428.8</ele>
        <time>2020-02-20T18:14:33Z</time>
      </trkpt>
      <trkpt lat="43.209130" lon="0.899716">
        <ele>428.6</ele>
        <time>2020-02-20T18:14:35Z</time>
      </trkpt>
      <trkpt lat="43.209168" lon="0.899456">
        <ele>429.0</ele>
        <time>2020-02-20T18:14:39Z</time>
      </trkpt>
      <trkpt lat="43.209219" lon="0.899281">
        <ele>429.1</ele>
        <time>2020-02-20T18:14:41Z</time>
      </trkpt>
      <trkpt lat="43.209266" lon="0.899092">
        <ele>429.2</ele>
        <time>2020-02-20T18:14:44Z</time>
      </trkpt>
      <trkpt lat="43.209263" lon="0.898968">
        <ele>429.4</ele>
        <time>2020-02-20T18:14:46Z</time>
      </trkpt>
      <trkpt lat="43.209225" lon="0.898857">
        <ele>429.6</ele>
        <time>2020-02-20T18:14:48Z</time>
      </trkpt>
      <trkpt lat="43.209136" lon="0.898727">
        <ele>429.9</ele>
        <time>2020-02-20T18:14:50Z</time>
      </trkpt>
      <trkpt lat="43.208938" lon="0.898557">
        <ele>429.8</ele>
        <time>2020-02-20T18:14:55Z</time>
      </trkpt>
      <trkpt lat="43.208961" lon="0.898411">
        <ele>430.6</ele>
        <time>2020-02-20T18:14:57Z</time>
      </trkpt>
      <trkpt lat="43.209034" lon="0.898218">
        <ele>432.6</ele>
        <time>2020-02-20T18:15:00Z</time>
      </trkpt>
      <trkpt lat="43.209130" lon="0.898064">
        <ele>434.4</ele>
        <time>2020-02-20T18:15:03Z</time>
      </trkpt>
      <trkpt lat="43.209237" lon="0.897972">
        <ele>434.4</ele>
        <time>2020-02-20T18:15:05Z</time>
      </trkpt>
      <trkpt lat="43.209377" lon="0.897927">
        <ele>432.8</ele>
        <time>2020-02-20T18:15:08Z</time>
      </trkpt>
      <trkpt lat="43.209499" lon="0.897892">
        <ele>431.2</ele>
        <time>2020-02-20T18:15:10Z</time>
      </trkpt>
      <trkpt lat="43.209632" lon="0.897832">
        <ele>429.3</ele>
        <time>2020-02-20T18:15:13Z</time>
      </trkpt>
      <trkpt lat="43.209705" lon="0.897726">
        <ele>428.3</ele>
        <time>2020-02-20T18:15:15Z</time>
      </trkpt>
      <trkpt lat="43.209764" lon="0.897594">
        <ele>427.3</ele>
        <time>2020-02-20T18:15:17Z</time>
      </trkpt>
      <trkpt lat="43.209764" lon="0.897506">
        <ele>427.3</ele>
        <time>2020-02-20T18:15:19Z</time>
      </trkpt>
      <trkpt lat="43.209791" lon="0.897319">
        <ele>428.2</ele>
        <time>2020-02-20T18:15:20Z</time>
      </trkpt>
      <trkpt lat="43.209807" lon="0.897199">
        <ele>428.7</ele>
        <time>2020-02-20T18:15:21Z</time>
      </trkpt>
      <trkpt lat="43.209757" lon="0.897167">
        <ele>430.2</ele>
        <time>2020-02-20T18:15:22Z</time>
      </trkpt>
      <trkpt lat="43.209618" lon="0.897223">
        <ele>433.3</ele>
        <time>2020-02-20T18:15:25Z</time>
      </trkpt>
      <trkpt lat="43.209566" lon="0.896889">
        <ele>437.8</ele>
        <time>2020-02-20T18:15:28Z</time>
      </trkpt>
      <trkpt lat="43.209388" lon="0.896978">
        <ele>441.8</ele>
        <time>2020-02-20T18:15:31Z</time>
      </trkpt>
      <trkpt lat="43.209415" lon="0.896646">
        <ele>444.9</ele>
        <time>2020-02-20T18:15:34Z</time>
      </trkpt>
      <trkpt lat="43.209328" lon="0.896414">
        <ele>451.7</ele>
        <time>2020-02-20T18:15:36Z</time>
      </trkpt>
      <trkpt lat="43.209339" lon="0.896281">
        <ele>453.8</ele>
        <time>2020-02-20T18:15:37Z</time>
      </trkpt>
      <trkpt lat="43.209340" lon="0.896022">
        <ele>458.3</ele>
        <time>2020-02-20T18:15:40Z</time>
      </trkpt>
      <trkpt lat="43.209347" lon="0.895837">
        <ele>461.3</ele>
        <time>2020-02-20T18:15:42Z</time>
      </trkpt>
      <trkpt lat="43.209336" lon="0.895671">
        <ele>464.1</ele>
        <time>2020-02-20T18:15:44Z</time>
      </trkpt>
      <trkpt lat="43.209426" lon="0.895506">
        <ele>463.7</ele>
        <time>2020-02-20T18:15:47Z</time>
      </trkpt>
      <trkpt lat="43.209530" lon="0.895441">
        <ele>461.6</ele>
        <time>2020-02-20T18:15:49Z</time>
      </trkpt>
      <trkpt lat="43.209644" lon="0.895394">
        <ele>459.1</ele>
        <time>2020-02-20T18:15:52Z</time>
      </trkpt>
      <trkpt lat="43.209821" lon="0.895232">
        <ele>457.0</ele>
        <time>2020-02-20T18:15:56Z</time>
      </trkpt>
      <trkpt lat="43.209944" lon="0.895107">
        <ele>455.6</ele>
        <time>2020-02-20T18:15:58Z</time>
      </trkpt>
      <trkpt lat="43.210100" lon="0.894920">
        <ele>453.1</ele>
        <time>2020-02-20T18:16:02Z</time>
      </trkpt>
      <trkpt lat="43.210164" lon="0.894831">
        <ele>451.5</ele>
        <time>2020-02-20T18:16:04Z</time>
      </trkpt>
      <trkpt lat="43.210147" lon="0.894745">
        <ele>453.4</ele>
        <time>2020-02-20T18:16:05Z</time>
      </trkpt>
      <trkpt lat="43.210268" lon="0.894430">
        <ele>452.3</ele>
        <time>2020-02-20T18:16:10Z</time>
      </trkpt>
      <trkpt lat="43.210436" lon="0.894028">
        <ele>449.1</ele>
        <time>2020-02-20T18:16:16Z</time>
      </trkpt>
      <trkpt lat="43.210590" lon="0.893561">
        <ele>446.4</ele>
        <time>2020-02-20T18:16:23Z</time>
      </trkpt>
      <trkpt lat="43.210768" lon="0.893167">
        <ele>443.8</ele>
        <time>2020-02-20T18:16:30Z</time>
      </trkpt>
      <trkpt lat="43.210941" lon="0.892749">
        <ele>441.8</ele>
        <time>2020-02-20T18:16:36Z</time>
      </trkpt>
      <trkpt lat="43.211079" lon="0.892365">
        <ele>438.7</ele>
        <time>2020-02-20T18:16:42Z</time>
      </trkpt>
      <trkpt lat="43.211451" lon="0.891664">
        <ele>427.0</ele>
        <time>2020-02-20T18:16:54Z</time>
      </trkpt>
      <trkpt lat="43.211689" lon="0.891072">
        <ele>420.6</ele>
        <time>2020-02-20T18:17:03Z</time>
      </trkpt>
      <trkpt lat="43.211919" lon="0.890518">
        <ele>419.0</ele>
        <time>2020-02-20T18:17:12Z</time>
      </trkpt>
      <trkpt lat="43.212097" lon="0.890355">
        <ele>415.9</ele>
        <time>2020-02-20T18:17:16Z</time>
      </trkpt>
      <trkpt lat="43.212195" lon="0.890126">
        <ele>415.1</ele>
        <time>2020-02-20T18:17:20Z</time>
      </trkpt>
      <trkpt lat="43.212283" lon="0.890066">
        <ele>413.2</ele>
        <time>2020-02-20T18:17:21Z</time>
      </trkpt>
      <trkpt lat="43.212523" lon="0.889723">
        <ele>411.9</ele>
        <time>2020-02-20T18:17:22Z</time>
      </trkpt>
      <trkpt lat="43.212782" lon="0.889368">
        <ele>413.1</ele>
        <time>2020-02-20T18:17:23Z</time>
      </trkpt>
      <trkpt lat="43.213061" lon="0.888998">
        <ele>411.7</ele>
        <time>2020-02-20T18:17:25Z</time>
      </trkpt>
      <trkpt lat="43.213232" lon="0.888771">
        <ele>411.2</ele>
        <time>2020-02-20T18:17:27Z</time>
      </trkpt>
      <trkpt lat="43.213313" lon="0.888523">
        <ele>412.4</ele>
        <time>2020-02-20T18:17:29Z</time>
      </trkpt>
      <trkpt lat="43.213267" lon="0.888292">
        <ele>414.7</ele>
        <time>2020-02-20T18:17:43Z</time>
      </trkpt>
      <trkpt lat="43.213184" lon="0.888063">
        <ele>415.8</ele>
        <time>2020-02-20T18:17:45Z</time>
      </trkpt>
      <trkpt lat="43.213088" lon="0.887732">
        <ele>416.5</ele>
        <time>2020-02-20T18:17:47Z</time>
      </trkpt>
      <trkpt lat="43.213296" lon="0.887578">
        <ele>416.7</ele>
        <time>2020-02-20T18:17:49Z</time>
      </trkpt>
      <trkpt lat="43.213521" lon="0.887372">
        <ele>414.1</ele>
        <time>2020-02-20T18:17:59Z</time>
      </trkpt>
      <trkpt lat="43.213751" lon="0.887174">
        <ele>410.7</ele>
        <time>2020-02-20T18:18:01Z</time>
      </trkpt>
      <trkpt lat="43.214072" lon="0.886924">
        <ele>406.7</ele>
        <time>2020-02-20T18:18:11Z</time>
      </trkpt>
      <trkpt lat="43.214222" lon="0.886645">
        <ele>404.3</ele>
        <time>2020-02-20T18:18:13Z</time>
      </trkpt>
      <trkpt lat="43.214479" lon="0.886293">
        <ele>399.5</ele>
        <time>2020-02-20T18:18:22Z</time>
      </trkpt>
      <trkpt lat="43.214666" lon="0.886036">
        <ele>395.3</ele>
        <time>2020-02-20T18:18:25Z</time>
      </trkpt>
      <trkpt lat="43.214827" lon="0.885801">
        <ele>391.2</ele>
        <time>2020-02-20T18:18:45Z</time>
      </trkpt>
      <trkpt lat="43.214851" lon="0.885542">
        <ele>388.9</ele>
        <time>2020-02-20T18:18:47Z</time>
      </trkpt>
      <trkpt lat="43.214874" lon="0.885470">
        <ele>388.1</ele>
        <time>2020-02-20T18:18:49Z</time>
      </trkpt>
      <trkpt lat="43.214949" lon="0.885271">
        <ele>386.0</ele>
        <time>2020-02-20T18:19:01Z</time>
      </trkpt>
      <trkpt lat="43.215134" lon="0.884987">
        <ele>384.5</ele>
        <time>2020-02-20T18:19:03Z</time>
      </trkpt>
      <trkpt lat="43.215329" lon="0.884716">
        <ele>385.3</ele>
        <time>2020-02-20T18:19:05Z</time>
      </trkpt>
      <trkpt lat="43.215431" lon="0.884542">
        <ele>385.8</ele>
        <time>2020-02-20T18:19:13Z</time>
      </trkpt>
      <trkpt lat="43.215487" lon="0.884358">
        <ele>386.2</ele>
        <time>2020-02-20T18:19:15Z</time>
      </trkpt>
      <trkpt lat="43.215619" lon="0.884129">
        <ele>387.0</ele>
        <time>2020-02-20T18:19:18Z</time>
      </trkpt>
      <trkpt lat="43.215754" lon="0.883930">
        <ele>387.6</ele>
        <time>2020-02-20T18:19:21Z</time>
      </trkpt>
      <trkpt lat="43.215866" lon="0.883781">
        <ele>387.7</ele>
        <time>2020-02-20T18:19:43Z</time>
      </trkpt>
      <trkpt lat="43.215945" lon="0.883632">
        <ele>386.9</ele>
        <time>2020-02-20T18:19:47Z</time>
      </trkpt>
      <trkpt lat="43.216031" lon="0.883478">
        <ele>386.1</ele>
        <time>2020-02-20T18:19:50Z</time>
      </trkpt>
      <trkpt lat="43.216088" lon="0.883349">
        <ele>385.6</ele>
        <time>2020-02-20T18:19:53Z</time>
      </trkpt>
      <trkpt lat="43.216170" lon="0.883240">
        <ele>385.4</ele>
        <time>2020-02-20T18:19:56Z</time>
      </trkpt>
      <trkpt lat="43.216222" lon="0.883141">
        <ele>385.5</ele>
        <time>2020-02-20T18:21:51Z</time>
      </trkpt>
      <trkpt lat="43.216238" lon="0.883033">
        <ele>386.1</ele>
        <time>2020-02-20T18:21:55Z</time>
      </trkpt>
    </trkseg>
  </trk>
</gpx>

